<?xml version="1.0" encoding="UTF-8" standalone="no" ?>
<gpx xmlns="http://www.topografix.com/GPX/1/1" xmlns:xsi="http://www.w3.org/2001/XMLSchema-instance" xsi:schemaLocation="http://www.topografix.com/GPX/1/1 http://www.topografix.com/GPX/1/1/gpx.xsd" version="1.1" creator="VisuGPX - https://www.visugpx.com">
  <metadata>
    <name>83-M-le Muy</name>
    <desc><![CDATA[83-M-le Muy : la roche de la fille d%u2019Isnard    ]]></desc>
  </metadata>
  <trk>
    <name><![CDATA[2013-01-30-le muy]]></name>
    <trkseg>
      <trkpt lat="43.51885" lon="6.58299">
        <ele>60.292976</ele>
        <time>2013-01-30T13:13:01Z</time>
      </trkpt>
      <trkpt lat="43.51894" lon="6.58297">
        <ele>56.738937</ele>
        <time>2013-01-30T13:15:44Z</time>
      </trkpt>
      <trkpt lat="43.51894" lon="6.58297">
        <ele>57.080139</ele>
        <time>2013-01-30T13:15:45Z</time>
      </trkpt>
      <trkpt lat="43.51894" lon="6.58278">
        <ele>54.7</ele>
        <time>2013-01-30T13:19:01Z</time>
      </trkpt>
      <trkpt lat="43.51894" lon="6.58278">
        <ele>54.2</ele>
        <time>2013-01-30T13:19:02Z</time>
      </trkpt>
      <trkpt lat="43.51909" lon="6.58272">
        <ele>55</ele>
        <time>2013-01-30T13:19:24Z</time>
      </trkpt>
      <trkpt lat="43.51915" lon="6.58264">
        <ele>54.9</ele>
        <time>2013-01-30T13:19:33Z</time>
      </trkpt>
      <trkpt lat="43.51918" lon="6.58254">
        <ele>54.8</ele>
        <time>2013-01-30T13:19:42Z</time>
      </trkpt>
      <trkpt lat="43.5192" lon="6.58242">
        <ele>54.8</ele>
        <time>2013-01-30T13:19:49Z</time>
      </trkpt>
      <trkpt lat="43.51923" lon="6.58231">
        <ele>54.3</ele>
        <time>2013-01-30T13:19:56Z</time>
      </trkpt>
      <trkpt lat="43.51925" lon="6.5822">
        <ele>54.7</ele>
        <time>2013-01-30T13:20:04Z</time>
      </trkpt>
      <trkpt lat="43.51926" lon="6.58219">
        <ele>54.7</ele>
        <time>2013-01-30T13:20:05Z</time>
      </trkpt>
      <trkpt lat="43.5193" lon="6.58198">
        <ele>54.6</ele>
        <time>2013-01-30T13:20:18Z</time>
      </trkpt>
      <trkpt lat="43.51933" lon="6.58187">
        <ele>54.9</ele>
        <time>2013-01-30T13:20:24Z</time>
      </trkpt>
      <trkpt lat="43.51937" lon="6.58177">
        <ele>55.2</ele>
        <time>2013-01-30T13:20:31Z</time>
      </trkpt>
      <trkpt lat="43.5194" lon="6.58166">
        <ele>55.3</ele>
        <time>2013-01-30T13:20:39Z</time>
      </trkpt>
      <trkpt lat="43.51943" lon="6.58155">
        <ele>55.4</ele>
        <time>2013-01-30T13:20:47Z</time>
      </trkpt>
      <trkpt lat="43.51947" lon="6.58144">
        <ele>55.4</ele>
        <time>2013-01-30T13:20:53Z</time>
      </trkpt>
      <trkpt lat="43.51951" lon="6.58135">
        <ele>54.4</ele>
        <time>2013-01-30T13:21:00Z</time>
      </trkpt>
      <trkpt lat="43.51955" lon="6.58125">
        <ele>54.8</ele>
        <time>2013-01-30T13:21:06Z</time>
      </trkpt>
      <trkpt lat="43.51956" lon="6.58124">
        <ele>54.6</ele>
        <time>2013-01-30T13:21:07Z</time>
      </trkpt>
      <trkpt lat="43.51963" lon="6.58104">
        <ele>54.7</ele>
        <time>2013-01-30T13:21:17Z</time>
      </trkpt>
      <trkpt lat="43.51968" lon="6.58094">
        <ele>54.5</ele>
        <time>2013-01-30T13:21:24Z</time>
      </trkpt>
      <trkpt lat="43.5197" lon="6.58084">
        <ele>53.8</ele>
        <time>2013-01-30T13:21:30Z</time>
      </trkpt>
      <trkpt lat="43.51974" lon="6.58073">
        <ele>54</ele>
        <time>2013-01-30T13:21:35Z</time>
      </trkpt>
      <trkpt lat="43.51979" lon="6.58064">
        <ele>54.3</ele>
        <time>2013-01-30T13:21:41Z</time>
      </trkpt>
      <trkpt lat="43.51985" lon="6.58057">
        <ele>53.9</ele>
        <time>2013-01-30T13:21:47Z</time>
      </trkpt>
      <trkpt lat="43.5199" lon="6.58047">
        <ele>53.8</ele>
        <time>2013-01-30T13:21:56Z</time>
      </trkpt>
      <trkpt lat="43.51995" lon="6.58038">
        <ele>54.3</ele>
        <time>2013-01-30T13:22:02Z</time>
      </trkpt>
      <trkpt lat="43.52001" lon="6.5803">
        <ele>54.3</ele>
        <time>2013-01-30T13:22:10Z</time>
      </trkpt>
      <trkpt lat="43.52002" lon="6.58029">
        <ele>54.3</ele>
        <time>2013-01-30T13:22:11Z</time>
      </trkpt>
      <trkpt lat="43.52013" lon="6.58015">
        <ele>54.9</ele>
        <time>2013-01-30T13:22:25Z</time>
      </trkpt>
      <trkpt lat="43.52017" lon="6.58006">
        <ele>54.8</ele>
        <time>2013-01-30T13:22:31Z</time>
      </trkpt>
      <trkpt lat="43.52023" lon="6.57996">
        <ele>54.8</ele>
        <time>2013-01-30T13:22:38Z</time>
      </trkpt>
      <trkpt lat="43.52028" lon="6.57988">
        <ele>54.7</ele>
        <time>2013-01-30T13:22:45Z</time>
      </trkpt>
      <trkpt lat="43.52033" lon="6.57979">
        <ele>55.1</ele>
        <time>2013-01-30T13:22:51Z</time>
      </trkpt>
      <trkpt lat="43.5204" lon="6.57971">
        <ele>54.6</ele>
        <time>2013-01-30T13:22:58Z</time>
      </trkpt>
      <trkpt lat="43.52047" lon="6.57963">
        <ele>55.5</ele>
        <time>2013-01-30T13:23:06Z</time>
      </trkpt>
      <trkpt lat="43.52053" lon="6.57956">
        <ele>54.7</ele>
        <time>2013-01-30T13:23:13Z</time>
      </trkpt>
      <trkpt lat="43.52054" lon="6.57955">
        <ele>54.4</ele>
        <time>2013-01-30T13:23:14Z</time>
      </trkpt>
      <trkpt lat="43.52063" lon="6.57938">
        <ele>54.5</ele>
        <time>2013-01-30T13:23:27Z</time>
      </trkpt>
      <trkpt lat="43.52069" lon="6.5793">
        <ele>54.9</ele>
        <time>2013-01-30T13:23:33Z</time>
      </trkpt>
      <trkpt lat="43.52075" lon="6.57921">
        <ele>54.9</ele>
        <time>2013-01-30T13:23:39Z</time>
      </trkpt>
      <trkpt lat="43.52082" lon="6.57915">
        <ele>54.8</ele>
        <time>2013-01-30T13:23:45Z</time>
      </trkpt>
      <trkpt lat="43.52089" lon="6.57911">
        <ele>54.8</ele>
        <time>2013-01-30T13:23:52Z</time>
      </trkpt>
      <trkpt lat="43.52097" lon="6.57905">
        <ele>55.5</ele>
        <time>2013-01-30T13:23:59Z</time>
      </trkpt>
      <trkpt lat="43.52105" lon="6.579">
        <ele>55.8</ele>
        <time>2013-01-30T13:24:06Z</time>
      </trkpt>
      <trkpt lat="43.52112" lon="6.57895">
        <ele>55.7</ele>
        <time>2013-01-30T13:24:13Z</time>
      </trkpt>
      <trkpt lat="43.52118" lon="6.57887">
        <ele>56.7</ele>
        <time>2013-01-30T13:24:20Z</time>
      </trkpt>
      <trkpt lat="43.52119" lon="6.57885">
        <ele>56.7</ele>
        <time>2013-01-30T13:24:21Z</time>
      </trkpt>
      <trkpt lat="43.5213" lon="6.5787">
        <ele>56.7</ele>
        <time>2013-01-30T13:24:33Z</time>
      </trkpt>
      <trkpt lat="43.52135" lon="6.57861">
        <ele>57</ele>
        <time>2013-01-30T13:24:40Z</time>
      </trkpt>
      <trkpt lat="43.52141" lon="6.57852">
        <ele>57.5</ele>
        <time>2013-01-30T13:24:47Z</time>
      </trkpt>
      <trkpt lat="43.52145" lon="6.57842">
        <ele>57.6</ele>
        <time>2013-01-30T13:24:54Z</time>
      </trkpt>
      <trkpt lat="43.52152" lon="6.57833">
        <ele>57.9</ele>
        <time>2013-01-30T13:25:01Z</time>
      </trkpt>
      <trkpt lat="43.52159" lon="6.57827">
        <ele>57.6</ele>
        <time>2013-01-30T13:25:08Z</time>
      </trkpt>
      <trkpt lat="43.52167" lon="6.57822">
        <ele>57.1</ele>
        <time>2013-01-30T13:25:15Z</time>
      </trkpt>
      <trkpt lat="43.52173" lon="6.57814">
        <ele>57.1</ele>
        <time>2013-01-30T13:25:22Z</time>
      </trkpt>
      <trkpt lat="43.52174" lon="6.57813">
        <ele>57.3</ele>
        <time>2013-01-30T13:25:23Z</time>
      </trkpt>
      <trkpt lat="43.52188" lon="6.57805">
        <ele>57.4</ele>
        <time>2013-01-30T13:25:35Z</time>
      </trkpt>
      <trkpt lat="43.52196" lon="6.578">
        <ele>57.9</ele>
        <time>2013-01-30T13:25:41Z</time>
      </trkpt>
      <trkpt lat="43.52203" lon="6.57796">
        <ele>58</ele>
        <time>2013-01-30T13:25:46Z</time>
      </trkpt>
      <trkpt lat="43.5221" lon="6.57791">
        <ele>57.3</ele>
        <time>2013-01-30T13:25:53Z</time>
      </trkpt>
      <trkpt lat="43.52218" lon="6.57789">
        <ele>58.5</ele>
        <time>2013-01-30T13:26:00Z</time>
      </trkpt>
      <trkpt lat="43.52226" lon="6.57786">
        <ele>57.1</ele>
        <time>2013-01-30T13:26:07Z</time>
      </trkpt>
      <trkpt lat="43.52235" lon="6.57783">
        <ele>58.2</ele>
        <time>2013-01-30T13:26:15Z</time>
      </trkpt>
      <trkpt lat="43.52243" lon="6.57783">
        <ele>57.5</ele>
        <time>2013-01-30T13:26:21Z</time>
      </trkpt>
      <trkpt lat="43.52251" lon="6.57783">
        <ele>57.3</ele>
        <time>2013-01-30T13:26:25Z</time>
      </trkpt>
      <trkpt lat="43.52252" lon="6.57782">
        <ele>56.9</ele>
        <time>2013-01-30T13:26:26Z</time>
      </trkpt>
      <trkpt lat="43.52264" lon="6.5777">
        <ele>57.5</ele>
        <time>2013-01-30T13:26:40Z</time>
      </trkpt>
      <trkpt lat="43.52273" lon="6.57766">
        <ele>57.5</ele>
        <time>2013-01-30T13:26:49Z</time>
      </trkpt>
      <trkpt lat="43.52281" lon="6.57762">
        <ele>56.8</ele>
        <time>2013-01-30T13:26:57Z</time>
      </trkpt>
      <trkpt lat="43.52287" lon="6.57755">
        <ele>56</ele>
        <time>2013-01-30T13:27:04Z</time>
      </trkpt>
      <trkpt lat="43.52295" lon="6.57749">
        <ele>55</ele>
        <time>2013-01-30T13:27:12Z</time>
      </trkpt>
      <trkpt lat="43.52302" lon="6.57742">
        <ele>54.9</ele>
        <time>2013-01-30T13:27:20Z</time>
      </trkpt>
      <trkpt lat="43.52309" lon="6.57734">
        <ele>54.8</ele>
        <time>2013-01-30T13:27:27Z</time>
      </trkpt>
      <trkpt lat="43.5231" lon="6.57733">
        <ele>54.7</ele>
        <time>2013-01-30T13:27:28Z</time>
      </trkpt>
      <trkpt lat="43.52325" lon="6.57732">
        <ele>55.1</ele>
        <time>2013-01-30T13:27:41Z</time>
      </trkpt>
      <trkpt lat="43.52333" lon="6.57731">
        <ele>54.6</ele>
        <time>2013-01-30T13:27:47Z</time>
      </trkpt>
      <trkpt lat="43.52341" lon="6.5773">
        <ele>54.8</ele>
        <time>2013-01-30T13:27:53Z</time>
      </trkpt>
      <trkpt lat="43.52349" lon="6.57725">
        <ele>55.9</ele>
        <time>2013-01-30T13:27:59Z</time>
      </trkpt>
      <trkpt lat="43.52357" lon="6.57723">
        <ele>54.7</ele>
        <time>2013-01-30T13:28:07Z</time>
      </trkpt>
      <trkpt lat="43.52366" lon="6.57723">
        <ele>54.3</ele>
        <time>2013-01-30T13:28:14Z</time>
      </trkpt>
      <trkpt lat="43.52375" lon="6.57722">
        <ele>54.8</ele>
        <time>2013-01-30T13:28:22Z</time>
      </trkpt>
      <trkpt lat="43.52383" lon="6.57718">
        <ele>56.5</ele>
        <time>2013-01-30T13:28:28Z</time>
      </trkpt>
      <trkpt lat="43.52385" lon="6.57718">
        <ele>56.1</ele>
        <time>2013-01-30T13:28:29Z</time>
      </trkpt>
      <trkpt lat="43.52399" lon="6.57716">
        <ele>56.3</ele>
        <time>2013-01-30T13:28:40Z</time>
      </trkpt>
      <trkpt lat="43.52408" lon="6.57714">
        <ele>55.8</ele>
        <time>2013-01-30T13:28:47Z</time>
      </trkpt>
      <trkpt lat="43.52415" lon="6.57715">
        <ele>55.9</ele>
        <time>2013-01-30T13:28:52Z</time>
      </trkpt>
      <trkpt lat="43.52422" lon="6.5772">
        <ele>56</ele>
        <time>2013-01-30T13:28:57Z</time>
      </trkpt>
      <trkpt lat="43.5243" lon="6.57719">
        <ele>56.2</ele>
        <time>2013-01-30T13:29:06Z</time>
      </trkpt>
      <trkpt lat="43.52439" lon="6.57723">
        <ele>55.7</ele>
        <time>2013-01-30T13:29:11Z</time>
      </trkpt>
      <trkpt lat="43.52447" lon="6.57725">
        <ele>55.8</ele>
        <time>2013-01-30T13:29:17Z</time>
      </trkpt>
      <trkpt lat="43.52456" lon="6.57723">
        <ele>55.8</ele>
        <time>2013-01-30T13:29:24Z</time>
      </trkpt>
      <trkpt lat="43.52465" lon="6.57725">
        <ele>55.4</ele>
        <time>2013-01-30T13:29:30Z</time>
      </trkpt>
      <trkpt lat="43.52466" lon="6.57725">
        <ele>55.1</ele>
        <time>2013-01-30T13:29:31Z</time>
      </trkpt>
      <trkpt lat="43.52482" lon="6.57731">
        <ele>55.6</ele>
        <time>2013-01-30T13:29:43Z</time>
      </trkpt>
      <trkpt lat="43.52489" lon="6.57735">
        <ele>55.4</ele>
        <time>2013-01-30T13:29:49Z</time>
      </trkpt>
      <trkpt lat="43.52497" lon="6.57736">
        <ele>55</ele>
        <time>2013-01-30T13:29:55Z</time>
      </trkpt>
      <trkpt lat="43.52505" lon="6.57738">
        <ele>56.3</ele>
        <time>2013-01-30T13:30:01Z</time>
      </trkpt>
      <trkpt lat="43.52513" lon="6.57741">
        <ele>55.7</ele>
        <time>2013-01-30T13:30:07Z</time>
      </trkpt>
      <trkpt lat="43.52521" lon="6.57743">
        <ele>56.1</ele>
        <time>2013-01-30T13:30:12Z</time>
      </trkpt>
      <trkpt lat="43.5253" lon="6.57746">
        <ele>56.4</ele>
        <time>2013-01-30T13:30:18Z</time>
      </trkpt>
      <trkpt lat="43.52538" lon="6.57749">
        <ele>56.1</ele>
        <time>2013-01-30T13:30:23Z</time>
      </trkpt>
      <trkpt lat="43.52546" lon="6.57753">
        <ele>55.5</ele>
        <time>2013-01-30T13:30:29Z</time>
      </trkpt>
      <trkpt lat="43.52554" lon="6.57757">
        <ele>56.6</ele>
        <time>2013-01-30T13:30:37Z</time>
      </trkpt>
      <trkpt lat="43.52555" lon="6.57757">
        <ele>56.9</ele>
        <time>2013-01-30T13:30:38Z</time>
      </trkpt>
      <trkpt lat="43.52569" lon="6.57767">
        <ele>57.8</ele>
        <time>2013-01-30T13:30:51Z</time>
      </trkpt>
      <trkpt lat="43.52578" lon="6.57771">
        <ele>56.4</ele>
        <time>2013-01-30T13:30:57Z</time>
      </trkpt>
      <trkpt lat="43.52586" lon="6.57774">
        <ele>56.8</ele>
        <time>2013-01-30T13:31:03Z</time>
      </trkpt>
      <trkpt lat="43.52592" lon="6.57781">
        <ele>57.3</ele>
        <time>2013-01-30T13:31:10Z</time>
      </trkpt>
      <trkpt lat="43.52598" lon="6.57788">
        <ele>57.2</ele>
        <time>2013-01-30T13:31:15Z</time>
      </trkpt>
      <trkpt lat="43.52605" lon="6.57795">
        <ele>57.4</ele>
        <time>2013-01-30T13:31:22Z</time>
      </trkpt>
      <trkpt lat="43.52612" lon="6.57804">
        <ele>57.3</ele>
        <time>2013-01-30T13:31:28Z</time>
      </trkpt>
      <trkpt lat="43.52617" lon="6.57813">
        <ele>58.1</ele>
        <time>2013-01-30T13:31:35Z</time>
      </trkpt>
      <trkpt lat="43.52625" lon="6.57818">
        <ele>58.4</ele>
        <time>2013-01-30T13:31:44Z</time>
      </trkpt>
      <trkpt lat="43.52626" lon="6.57819">
        <ele>58.9</ele>
        <time>2013-01-30T13:31:45Z</time>
      </trkpt>
      <trkpt lat="43.52641" lon="6.57825">
        <ele>57.5</ele>
        <time>2013-01-30T13:31:59Z</time>
      </trkpt>
      <trkpt lat="43.52647" lon="6.57832">
        <ele>58.6</ele>
        <time>2013-01-30T13:32:04Z</time>
      </trkpt>
      <trkpt lat="43.52653" lon="6.57838">
        <ele>58</ele>
        <time>2013-01-30T13:32:09Z</time>
      </trkpt>
      <trkpt lat="43.52659" lon="6.57847">
        <ele>59.4</ele>
        <time>2013-01-30T13:32:16Z</time>
      </trkpt>
      <trkpt lat="43.52663" lon="6.57857">
        <ele>59.7</ele>
        <time>2013-01-30T13:32:25Z</time>
      </trkpt>
      <trkpt lat="43.52667" lon="6.57867">
        <ele>59.2</ele>
        <time>2013-01-30T13:32:32Z</time>
      </trkpt>
      <trkpt lat="43.52674" lon="6.57872">
        <ele>59.9</ele>
        <time>2013-01-30T13:32:41Z</time>
      </trkpt>
      <trkpt lat="43.52683" lon="6.57871">
        <ele>59.9</ele>
        <time>2013-01-30T13:32:50Z</time>
      </trkpt>
      <trkpt lat="43.52684" lon="6.57871">
        <ele>59.9</ele>
        <time>2013-01-30T13:32:51Z</time>
      </trkpt>
      <trkpt lat="43.52701" lon="6.57874">
        <ele>61.1</ele>
        <time>2013-01-30T13:33:21Z</time>
      </trkpt>
      <trkpt lat="43.527" lon="6.57887">
        <ele>62.4</ele>
        <time>2013-01-30T13:34:03Z</time>
      </trkpt>
      <trkpt lat="43.527" lon="6.57888">
        <ele>62.4</ele>
        <time>2013-01-30T13:34:04Z</time>
      </trkpt>
      <trkpt lat="43.52707" lon="6.57907">
        <ele>69.5</ele>
        <time>2013-01-30T13:34:59Z</time>
      </trkpt>
      <trkpt lat="43.52714" lon="6.57913">
        <ele>70.1</ele>
        <time>2013-01-30T13:35:08Z</time>
      </trkpt>
      <trkpt lat="43.52715" lon="6.57913">
        <ele>70.5</ele>
        <time>2013-01-30T13:35:09Z</time>
      </trkpt>
      <trkpt lat="43.52725" lon="6.5793">
        <ele>73.2</ele>
        <time>2013-01-30T13:35:31Z</time>
      </trkpt>
      <trkpt lat="43.5273" lon="6.5794">
        <ele>77.4</ele>
        <time>2013-01-30T13:35:53Z</time>
      </trkpt>
      <trkpt lat="43.52735" lon="6.57951">
        <ele>80</ele>
        <time>2013-01-30T13:36:09Z</time>
      </trkpt>
      <trkpt lat="43.52735" lon="6.57952">
        <ele>79.8</ele>
        <time>2013-01-30T13:36:10Z</time>
      </trkpt>
      <trkpt lat="43.52743" lon="6.57972">
        <ele>83.4</ele>
        <time>2013-01-30T13:36:34Z</time>
      </trkpt>
      <trkpt lat="43.52741" lon="6.57984">
        <ele>85.8</ele>
        <time>2013-01-30T13:36:48Z</time>
      </trkpt>
      <trkpt lat="43.52743" lon="6.57996">
        <ele>86.2</ele>
        <time>2013-01-30T13:36:59Z</time>
      </trkpt>
      <trkpt lat="43.52741" lon="6.58008">
        <ele>87.4</ele>
        <time>2013-01-30T13:37:09Z</time>
      </trkpt>
      <trkpt lat="43.52738" lon="6.58019">
        <ele>89.6</ele>
        <time>2013-01-30T13:37:26Z</time>
      </trkpt>
      <trkpt lat="43.52738" lon="6.58019">
        <ele>89.6</ele>
        <time>2013-01-30T13:37:27Z</time>
      </trkpt>
      <trkpt lat="43.52735" lon="6.58043">
        <ele>93.8</ele>
        <time>2013-01-30T13:38:17Z</time>
      </trkpt>
      <trkpt lat="43.52738" lon="6.58054">
        <ele>94.7</ele>
        <time>2013-01-30T13:38:37Z</time>
      </trkpt>
      <trkpt lat="43.52739" lon="6.58055">
        <ele>94.9</ele>
        <time>2013-01-30T13:38:38Z</time>
      </trkpt>
      <trkpt lat="43.52741" lon="6.58076">
        <ele>97.7</ele>
        <time>2013-01-30T13:38:56Z</time>
      </trkpt>
      <trkpt lat="43.52742" lon="6.58088">
        <ele>100.1</ele>
        <time>2013-01-30T13:39:18Z</time>
      </trkpt>
      <trkpt lat="43.5274" lon="6.581">
        <ele>100.9</ele>
        <time>2013-01-30T13:42:09Z</time>
      </trkpt>
      <trkpt lat="43.52739" lon="6.58101">
        <ele>100.5</ele>
        <time>2013-01-30T13:42:10Z</time>
      </trkpt>
      <trkpt lat="43.5273" lon="6.5812">
        <ele>102.9</ele>
        <time>2013-01-30T13:42:35Z</time>
      </trkpt>
      <trkpt lat="43.52722" lon="6.58122">
        <ele>104</ele>
        <time>2013-01-30T13:42:43Z</time>
      </trkpt>
      <trkpt lat="43.52719" lon="6.58134">
        <ele>103.5</ele>
        <time>2013-01-30T13:43:03Z</time>
      </trkpt>
      <trkpt lat="43.52726" lon="6.58141">
        <ele>108.1</ele>
        <time>2013-01-30T13:43:59Z</time>
      </trkpt>
      <trkpt lat="43.52727" lon="6.58141">
        <ele>108.3</ele>
        <time>2013-01-30T13:44:00Z</time>
      </trkpt>
      <trkpt lat="43.52737" lon="6.58159">
        <ele>112.1</ele>
        <time>2013-01-30T13:44:29Z</time>
      </trkpt>
      <trkpt lat="43.52742" lon="6.58167">
        <ele>113.9</ele>
        <time>2013-01-30T13:44:39Z</time>
      </trkpt>
      <trkpt lat="43.52749" lon="6.58175">
        <ele>116.1</ele>
        <time>2013-01-30T13:44:50Z</time>
      </trkpt>
      <trkpt lat="43.52755" lon="6.58184">
        <ele>118.3</ele>
        <time>2013-01-30T13:45:03Z</time>
      </trkpt>
      <trkpt lat="43.52755" lon="6.58184">
        <ele>118.7</ele>
        <time>2013-01-30T13:45:04Z</time>
      </trkpt>
      <trkpt lat="43.52767" lon="6.58201">
        <ele>121.8</ele>
        <time>2013-01-30T13:45:27Z</time>
      </trkpt>
      <trkpt lat="43.52774" lon="6.58205">
        <ele>123.4</ele>
        <time>2013-01-30T13:45:46Z</time>
      </trkpt>
      <trkpt lat="43.52783" lon="6.58207">
        <ele>125.5</ele>
        <time>2013-01-30T13:46:01Z</time>
      </trkpt>
      <trkpt lat="43.52792" lon="6.58209">
        <ele>127.5</ele>
        <time>2013-01-30T13:47:45Z</time>
      </trkpt>
      <trkpt lat="43.52792" lon="6.58209">
        <ele>127.1</ele>
        <time>2013-01-30T13:47:46Z</time>
      </trkpt>
      <trkpt lat="43.52802" lon="6.58228">
        <ele>132.3</ele>
        <time>2013-01-30T13:48:14Z</time>
      </trkpt>
      <trkpt lat="43.52805" lon="6.5824">
        <ele>135.8</ele>
        <time>2013-01-30T13:48:28Z</time>
      </trkpt>
      <trkpt lat="43.52806" lon="6.58252">
        <ele>136.9</ele>
        <time>2013-01-30T13:48:38Z</time>
      </trkpt>
      <trkpt lat="43.52802" lon="6.58262">
        <ele>136.3</ele>
        <time>2013-01-30T13:48:45Z</time>
      </trkpt>
      <trkpt lat="43.52801" lon="6.58274">
        <ele>136.1</ele>
        <time>2013-01-30T13:48:53Z</time>
      </trkpt>
      <trkpt lat="43.52801" lon="6.58276">
        <ele>136</ele>
        <time>2013-01-30T13:48:54Z</time>
      </trkpt>
      <trkpt lat="43.528" lon="6.58298">
        <ele>138</ele>
        <time>2013-01-30T13:49:10Z</time>
      </trkpt>
      <trkpt lat="43.52801" lon="6.58309">
        <ele>138.3</ele>
        <time>2013-01-30T13:49:18Z</time>
      </trkpt>
      <trkpt lat="43.52804" lon="6.58321">
        <ele>139.8</ele>
        <time>2013-01-30T13:49:27Z</time>
      </trkpt>
      <trkpt lat="43.52805" lon="6.58333">
        <ele>139.6</ele>
        <time>2013-01-30T13:49:35Z</time>
      </trkpt>
      <trkpt lat="43.52801" lon="6.58343">
        <ele>141</ele>
        <time>2013-01-30T13:49:44Z</time>
      </trkpt>
      <trkpt lat="43.52795" lon="6.5835">
        <ele>141</ele>
        <time>2013-01-30T13:49:51Z</time>
      </trkpt>
      <trkpt lat="43.52786" lon="6.58349">
        <ele>142.2</ele>
        <time>2013-01-30T13:50:32Z</time>
      </trkpt>
      <trkpt lat="43.52786" lon="6.58349">
        <ele>142.2</ele>
        <time>2013-01-30T13:50:33Z</time>
      </trkpt>
      <trkpt lat="43.52771" lon="6.5834">
        <ele>140.1</ele>
        <time>2013-01-30T13:50:52Z</time>
      </trkpt>
      <trkpt lat="43.52763" lon="6.58336">
        <ele>141</ele>
        <time>2013-01-30T13:51:00Z</time>
      </trkpt>
      <trkpt lat="43.52756" lon="6.58342">
        <ele>140.4</ele>
        <time>2013-01-30T13:51:12Z</time>
      </trkpt>
      <trkpt lat="43.52749" lon="6.58349">
        <ele>142.5</ele>
        <time>2013-01-30T13:51:26Z</time>
      </trkpt>
      <trkpt lat="43.52741" lon="6.58353">
        <ele>144.2</ele>
        <time>2013-01-30T13:51:36Z</time>
      </trkpt>
      <trkpt lat="43.5274" lon="6.58353">
        <ele>144.7</ele>
        <time>2013-01-30T13:51:37Z</time>
      </trkpt>
      <trkpt lat="43.52724" lon="6.58355">
        <ele>146.8</ele>
        <time>2013-01-30T13:51:57Z</time>
      </trkpt>
      <trkpt lat="43.52716" lon="6.58361">
        <ele>148.8</ele>
        <time>2013-01-30T13:52:08Z</time>
      </trkpt>
      <trkpt lat="43.5271" lon="6.58369">
        <ele>151.1</ele>
        <time>2013-01-30T13:52:18Z</time>
      </trkpt>
      <trkpt lat="43.52704" lon="6.58376">
        <ele>153</ele>
        <time>2013-01-30T13:52:32Z</time>
      </trkpt>
      <trkpt lat="43.52696" lon="6.58382">
        <ele>153.6</ele>
        <time>2013-01-30T13:52:43Z</time>
      </trkpt>
      <trkpt lat="43.52695" lon="6.58382">
        <ele>153.2</ele>
        <time>2013-01-30T13:52:44Z</time>
      </trkpt>
      <trkpt lat="43.52679" lon="6.58386">
        <ele>156.8</ele>
        <time>2013-01-30T13:53:01Z</time>
      </trkpt>
      <trkpt lat="43.52671" lon="6.58389">
        <ele>157.6</ele>
        <time>2013-01-30T13:53:09Z</time>
      </trkpt>
      <trkpt lat="43.52663" lon="6.58389">
        <ele>159</ele>
        <time>2013-01-30T13:53:20Z</time>
      </trkpt>
      <trkpt lat="43.52654" lon="6.58391">
        <ele>161.1</ele>
        <time>2013-01-30T13:53:32Z</time>
      </trkpt>
      <trkpt lat="43.52646" lon="6.58393">
        <ele>164.1</ele>
        <time>2013-01-30T13:53:45Z</time>
      </trkpt>
      <trkpt lat="43.52645" lon="6.58393">
        <ele>164.3</ele>
        <time>2013-01-30T13:53:46Z</time>
      </trkpt>
      <trkpt lat="43.5264" lon="6.58416">
        <ele>166.2</ele>
        <time>2013-01-30T13:54:06Z</time>
      </trkpt>
      <trkpt lat="43.52641" lon="6.58428">
        <ele>166.8</ele>
        <time>2013-01-30T13:54:15Z</time>
      </trkpt>
      <trkpt lat="43.52644" lon="6.58439">
        <ele>169.2</ele>
        <time>2013-01-30T13:54:27Z</time>
      </trkpt>
      <trkpt lat="43.52647" lon="6.5845">
        <ele>171.9</ele>
        <time>2013-01-30T13:54:39Z</time>
      </trkpt>
      <trkpt lat="43.52651" lon="6.5846">
        <ele>174.6</ele>
        <time>2013-01-30T13:54:54Z</time>
      </trkpt>
      <trkpt lat="43.52651" lon="6.58461">
        <ele>174.5</ele>
        <time>2013-01-30T13:54:55Z</time>
      </trkpt>
      <trkpt lat="43.52658" lon="6.58482">
        <ele>179.4</ele>
        <time>2013-01-30T13:55:26Z</time>
      </trkpt>
      <trkpt lat="43.52662" lon="6.58493">
        <ele>182.5</ele>
        <time>2013-01-30T13:55:48Z</time>
      </trkpt>
      <trkpt lat="43.52664" lon="6.58505">
        <ele>186.1</ele>
        <time>2013-01-30T13:56:06Z</time>
      </trkpt>
      <trkpt lat="43.52664" lon="6.58506">
        <ele>186.2</ele>
        <time>2013-01-30T13:56:07Z</time>
      </trkpt>
      <trkpt lat="43.52662" lon="6.58529">
        <ele>190.7</ele>
        <time>2013-01-30T13:56:38Z</time>
      </trkpt>
      <trkpt lat="43.5266" lon="6.58541">
        <ele>193.5</ele>
        <time>2013-01-30T13:57:01Z</time>
      </trkpt>
      <trkpt lat="43.52667" lon="6.5855">
        <ele>197.9</ele>
        <time>2013-01-30T13:57:35Z</time>
      </trkpt>
      <trkpt lat="43.52667" lon="6.58549">
        <ele>197.8</ele>
        <time>2013-01-30T13:57:36Z</time>
      </trkpt>
      <trkpt lat="43.52684" lon="6.58555">
        <ele>203.7</ele>
        <time>2013-01-30T13:58:13Z</time>
      </trkpt>
      <trkpt lat="43.52691" lon="6.58562">
        <ele>206.7</ele>
        <time>2013-01-30T13:58:26Z</time>
      </trkpt>
      <trkpt lat="43.52696" lon="6.58572">
        <ele>211</ele>
        <time>2013-01-30T13:58:44Z</time>
      </trkpt>
      <trkpt lat="43.52696" lon="6.58572">
        <ele>211.6</ele>
        <time>2013-01-30T13:58:45Z</time>
      </trkpt>
      <trkpt lat="43.52709" lon="6.58587">
        <ele>216.7</ele>
        <time>2013-01-30T13:59:16Z</time>
      </trkpt>
      <trkpt lat="43.52712" lon="6.58599">
        <ele>221.6</ele>
        <time>2013-01-30T13:59:38Z</time>
      </trkpt>
      <trkpt lat="43.52708" lon="6.5861">
        <ele>225.7</ele>
        <time>2013-01-30T14:00:04Z</time>
      </trkpt>
      <trkpt lat="43.52708" lon="6.5861">
        <ele>225.8</ele>
        <time>2013-01-30T14:00:05Z</time>
      </trkpt>
      <trkpt lat="43.52708" lon="6.58634">
        <ele>233.4</ele>
        <time>2013-01-30T14:00:47Z</time>
      </trkpt>
      <trkpt lat="43.52704" lon="6.58645">
        <ele>236</ele>
        <time>2013-01-30T14:01:13Z</time>
      </trkpt>
      <trkpt lat="43.52704" lon="6.58645">
        <ele>236.5</ele>
        <time>2013-01-30T14:01:14Z</time>
      </trkpt>
      <trkpt lat="43.52698" lon="6.58667">
        <ele>243.4</ele>
        <time>2013-01-30T14:01:53Z</time>
      </trkpt>
      <trkpt lat="43.52706" lon="6.58665">
        <ele>243.9</ele>
        <time>2013-01-30T14:02:39Z</time>
      </trkpt>
      <trkpt lat="43.52707" lon="6.58665">
        <ele>244.1</ele>
        <time>2013-01-30T14:02:40Z</time>
      </trkpt>
      <trkpt lat="43.52721" lon="6.58677">
        <ele>246.8</ele>
        <time>2013-01-30T14:03:38Z</time>
      </trkpt>
      <trkpt lat="43.52727" lon="6.58685">
        <ele>249.7</ele>
        <time>2013-01-30T14:06:38Z</time>
      </trkpt>
      <trkpt lat="43.52727" lon="6.58686">
        <ele>250.1</ele>
        <time>2013-01-30T14:06:39Z</time>
      </trkpt>
      <trkpt lat="43.52735" lon="6.58707">
        <ele>256.6</ele>
        <time>2013-01-30T14:07:22Z</time>
      </trkpt>
      <trkpt lat="43.52742" lon="6.58715">
        <ele>265.4</ele>
        <time>2013-01-30T14:08:24Z</time>
      </trkpt>
      <trkpt lat="43.52742" lon="6.58715">
        <ele>265.7</ele>
        <time>2013-01-30T14:08:25Z</time>
      </trkpt>
      <trkpt lat="43.52754" lon="6.5873">
        <ele>269.6</ele>
        <time>2013-01-30T14:08:55Z</time>
      </trkpt>
      <trkpt lat="43.52762" lon="6.58735">
        <ele>272.8</ele>
        <time>2013-01-30T14:09:20Z</time>
      </trkpt>
      <trkpt lat="43.52768" lon="6.58744">
        <ele>275.1</ele>
        <time>2013-01-30T14:10:50Z</time>
      </trkpt>
      <trkpt lat="43.52769" lon="6.58744">
        <ele>275.3</ele>
        <time>2013-01-30T14:10:51Z</time>
      </trkpt>
      <trkpt lat="43.52775" lon="6.58752">
        <ele>277</ele>
        <time>2013-01-30T14:12:24Z</time>
      </trkpt>
      <trkpt lat="43.52789" lon="6.58766">
        <ele>281.1</ele>
        <time>2013-01-30T14:12:49Z</time>
      </trkpt>
      <trkpt lat="43.52795" lon="6.58773">
        <ele>281.3</ele>
        <time>2013-01-30T14:13:03Z</time>
      </trkpt>
      <trkpt lat="43.52804" lon="6.58775">
        <ele>284.2</ele>
        <time>2013-01-30T14:13:21Z</time>
      </trkpt>
      <trkpt lat="43.52812" lon="6.58772">
        <ele>287</ele>
        <time>2013-01-30T14:13:36Z</time>
      </trkpt>
      <trkpt lat="43.52813" lon="6.58772">
        <ele>287.1</ele>
        <time>2013-01-30T14:13:37Z</time>
      </trkpt>
      <trkpt lat="43.52825" lon="6.58787">
        <ele>289.5</ele>
        <time>2013-01-30T14:14:00Z</time>
      </trkpt>
      <trkpt lat="43.5283" lon="6.58796">
        <ele>289.9</ele>
        <time>2013-01-30T14:14:10Z</time>
      </trkpt>
      <trkpt lat="43.52837" lon="6.58802">
        <ele>290.8</ele>
        <time>2013-01-30T14:14:23Z</time>
      </trkpt>
      <trkpt lat="43.52845" lon="6.58808">
        <ele>291.6</ele>
        <time>2013-01-30T14:14:33Z</time>
      </trkpt>
      <trkpt lat="43.52851" lon="6.58815">
        <ele>292</ele>
        <time>2013-01-30T14:14:43Z</time>
      </trkpt>
      <trkpt lat="43.52852" lon="6.58816">
        <ele>292</ele>
        <time>2013-01-30T14:14:44Z</time>
      </trkpt>
      <trkpt lat="43.52866" lon="6.58825">
        <ele>293.2</ele>
        <time>2013-01-30T14:15:02Z</time>
      </trkpt>
      <trkpt lat="43.52872" lon="6.58833">
        <ele>294</ele>
        <time>2013-01-30T14:15:11Z</time>
      </trkpt>
      <trkpt lat="43.52879" lon="6.58841">
        <ele>295</ele>
        <time>2013-01-30T14:15:21Z</time>
      </trkpt>
      <trkpt lat="43.52885" lon="6.58849">
        <ele>296.5</ele>
        <time>2013-01-30T14:15:31Z</time>
      </trkpt>
      <trkpt lat="43.52891" lon="6.58857">
        <ele>297.8</ele>
        <time>2013-01-30T14:15:42Z</time>
      </trkpt>
      <trkpt lat="43.52896" lon="6.58867">
        <ele>299</ele>
        <time>2013-01-30T14:15:54Z</time>
      </trkpt>
      <trkpt lat="43.52897" lon="6.58868">
        <ele>299</ele>
        <time>2013-01-30T14:15:55Z</time>
      </trkpt>
      <trkpt lat="43.52895" lon="6.58891">
        <ele>298.7</ele>
        <time>2013-01-30T14:16:13Z</time>
      </trkpt>
      <trkpt lat="43.52894" lon="6.58902">
        <ele>299.2</ele>
        <time>2013-01-30T14:16:21Z</time>
      </trkpt>
      <trkpt lat="43.52893" lon="6.58913">
        <ele>298.5</ele>
        <time>2013-01-30T14:16:29Z</time>
      </trkpt>
      <trkpt lat="43.52889" lon="6.58924">
        <ele>295.3</ele>
        <time>2013-01-30T14:16:48Z</time>
      </trkpt>
      <trkpt lat="43.52883" lon="6.58931">
        <ele>295</ele>
        <time>2013-01-30T14:16:59Z</time>
      </trkpt>
      <trkpt lat="43.52882" lon="6.58931">
        <ele>295</ele>
        <time>2013-01-30T14:17:00Z</time>
      </trkpt>
      <trkpt lat="43.52877" lon="6.58952">
        <ele>292</ele>
        <time>2013-01-30T14:17:22Z</time>
      </trkpt>
      <trkpt lat="43.52884" lon="6.5896">
        <ele>294.2</ele>
        <time>2013-01-30T14:18:21Z</time>
      </trkpt>
      <trkpt lat="43.52884" lon="6.5896">
        <ele>293.9</ele>
        <time>2013-01-30T14:18:22Z</time>
      </trkpt>
      <trkpt lat="43.5289" lon="6.5897">
        <ele>294.5</ele>
        <time>2013-01-30T14:20:21Z</time>
      </trkpt>
      <trkpt lat="43.52901" lon="6.58987">
        <ele>295.4</ele>
        <time>2013-01-30T14:20:47Z</time>
      </trkpt>
      <trkpt lat="43.52905" lon="6.58997">
        <ele>294.5</ele>
        <time>2013-01-30T14:21:02Z</time>
      </trkpt>
      <trkpt lat="43.52912" lon="6.59004">
        <ele>296.3</ele>
        <time>2013-01-30T14:21:13Z</time>
      </trkpt>
      <trkpt lat="43.5292" lon="6.5901">
        <ele>297.5</ele>
        <time>2013-01-30T14:21:24Z</time>
      </trkpt>
      <trkpt lat="43.5292" lon="6.5901">
        <ele>297.4</ele>
        <time>2013-01-30T14:21:25Z</time>
      </trkpt>
      <trkpt lat="43.52932" lon="6.59026">
        <ele>296.7</ele>
        <time>2013-01-30T14:21:56Z</time>
      </trkpt>
      <trkpt lat="43.52939" lon="6.59032">
        <ele>296.8</ele>
        <time>2013-01-30T14:22:05Z</time>
      </trkpt>
      <trkpt lat="43.52948" lon="6.59036">
        <ele>297.7</ele>
        <time>2013-01-30T14:22:15Z</time>
      </trkpt>
      <trkpt lat="43.52957" lon="6.59035">
        <ele>298.6</ele>
        <time>2013-01-30T14:22:25Z</time>
      </trkpt>
      <trkpt lat="43.52957" lon="6.59036">
        <ele>298.9</ele>
        <time>2013-01-30T14:22:26Z</time>
      </trkpt>
      <trkpt lat="43.52969" lon="6.5905">
        <ele>299.6</ele>
        <time>2013-01-30T14:22:41Z</time>
      </trkpt>
      <trkpt lat="43.52973" lon="6.5906">
        <ele>302.5</ele>
        <time>2013-01-30T14:22:50Z</time>
      </trkpt>
      <trkpt lat="43.52981" lon="6.59066">
        <ele>303.7</ele>
        <time>2013-01-30T14:23:01Z</time>
      </trkpt>
      <trkpt lat="43.52989" lon="6.59063">
        <ele>303.7</ele>
        <time>2013-01-30T14:23:12Z</time>
      </trkpt>
      <trkpt lat="43.52996" lon="6.59057">
        <ele>306.5</ele>
        <time>2013-01-30T14:23:31Z</time>
      </trkpt>
      <trkpt lat="43.52997" lon="6.59057">
        <ele>306.1</ele>
        <time>2013-01-30T14:23:32Z</time>
      </trkpt>
      <trkpt lat="43.53012" lon="6.59066">
        <ele>310.6</ele>
        <time>2013-01-30T14:24:00Z</time>
      </trkpt>
      <trkpt lat="43.5302" lon="6.59069">
        <ele>311</ele>
        <time>2013-01-30T14:24:14Z</time>
      </trkpt>
      <trkpt lat="43.53029" lon="6.59068">
        <ele>311.5</ele>
        <time>2013-01-30T14:24:26Z</time>
      </trkpt>
      <trkpt lat="43.53037" lon="6.59072">
        <ele>313.2</ele>
        <time>2013-01-30T14:24:39Z</time>
      </trkpt>
      <trkpt lat="43.53038" lon="6.59072">
        <ele>313.5</ele>
        <time>2013-01-30T14:24:40Z</time>
      </trkpt>
      <trkpt lat="43.53053" lon="6.59081">
        <ele>317.3</ele>
        <time>2013-01-30T14:25:04Z</time>
      </trkpt>
      <trkpt lat="43.53061" lon="6.59086">
        <ele>318.6</ele>
        <time>2013-01-30T14:25:17Z</time>
      </trkpt>
      <trkpt lat="43.53066" lon="6.59095">
        <ele>318.5</ele>
        <time>2013-01-30T14:29:13Z</time>
      </trkpt>
      <trkpt lat="43.53067" lon="6.59095">
        <ele>318.7</ele>
        <time>2013-01-30T14:29:14Z</time>
      </trkpt>
      <trkpt lat="43.53081" lon="6.59105">
        <ele>318</ele>
        <time>2013-01-30T14:29:32Z</time>
      </trkpt>
      <trkpt lat="43.53087" lon="6.59113">
        <ele>317.9</ele>
        <time>2013-01-30T14:29:41Z</time>
      </trkpt>
      <trkpt lat="43.53095" lon="6.59117">
        <ele>318</ele>
        <time>2013-01-30T14:29:50Z</time>
      </trkpt>
      <trkpt lat="43.53103" lon="6.59121">
        <ele>318.7</ele>
        <time>2013-01-30T14:29:59Z</time>
      </trkpt>
      <trkpt lat="43.53108" lon="6.59129">
        <ele>318.9</ele>
        <time>2013-01-30T14:30:07Z</time>
      </trkpt>
      <trkpt lat="43.53112" lon="6.5914">
        <ele>319.1</ele>
        <time>2013-01-30T14:30:15Z</time>
      </trkpt>
      <trkpt lat="43.53113" lon="6.59141">
        <ele>319.4</ele>
        <time>2013-01-30T14:30:16Z</time>
      </trkpt>
      <trkpt lat="43.53128" lon="6.59148">
        <ele>319.3</ele>
        <time>2013-01-30T14:30:32Z</time>
      </trkpt>
      <trkpt lat="43.53137" lon="6.59149">
        <ele>320</ele>
        <time>2013-01-30T14:30:41Z</time>
      </trkpt>
      <trkpt lat="43.53145" lon="6.59146">
        <ele>320.4</ele>
        <time>2013-01-30T14:30:50Z</time>
      </trkpt>
      <trkpt lat="43.53154" lon="6.59145">
        <ele>322.6</ele>
        <time>2013-01-30T14:31:03Z</time>
      </trkpt>
      <trkpt lat="43.53162" lon="6.59143">
        <ele>324.7</ele>
        <time>2013-01-30T14:31:15Z</time>
      </trkpt>
      <trkpt lat="43.53171" lon="6.59144">
        <ele>325.2</ele>
        <time>2013-01-30T14:31:24Z</time>
      </trkpt>
      <trkpt lat="43.53172" lon="6.59144">
        <ele>325.3</ele>
        <time>2013-01-30T14:31:25Z</time>
      </trkpt>
      <trkpt lat="43.53188" lon="6.59139">
        <ele>325.8</ele>
        <time>2013-01-30T14:31:42Z</time>
      </trkpt>
      <trkpt lat="43.53196" lon="6.59139">
        <ele>326.4</ele>
        <time>2013-01-30T14:31:50Z</time>
      </trkpt>
      <trkpt lat="43.53204" lon="6.59136">
        <ele>326</ele>
        <time>2013-01-30T14:31:57Z</time>
      </trkpt>
      <trkpt lat="43.53212" lon="6.59132">
        <ele>326.6</ele>
        <time>2013-01-30T14:32:05Z</time>
      </trkpt>
      <trkpt lat="43.5322" lon="6.59133">
        <ele>325.4</ele>
        <time>2013-01-30T14:32:17Z</time>
      </trkpt>
      <trkpt lat="43.53228" lon="6.59131">
        <ele>323.7</ele>
        <time>2013-01-30T14:32:25Z</time>
      </trkpt>
      <trkpt lat="43.53229" lon="6.59131">
        <ele>323.5</ele>
        <time>2013-01-30T14:32:26Z</time>
      </trkpt>
      <trkpt lat="43.53239" lon="6.59149">
        <ele>322.9</ele>
        <time>2013-01-30T14:32:46Z</time>
      </trkpt>
      <trkpt lat="43.53248" lon="6.59148">
        <ele>319</ele>
        <time>2013-01-30T14:33:37Z</time>
      </trkpt>
      <trkpt lat="43.53248" lon="6.59148">
        <ele>318.8</ele>
        <time>2013-01-30T14:33:38Z</time>
      </trkpt>
      <trkpt lat="43.53261" lon="6.59159">
        <ele>312.2</ele>
        <time>2013-01-30T14:34:20Z</time>
      </trkpt>
      <trkpt lat="43.53269" lon="6.59157">
        <ele>309.9</ele>
        <time>2013-01-30T14:34:38Z</time>
      </trkpt>
      <trkpt lat="43.5327" lon="6.59157">
        <ele>309.7</ele>
        <time>2013-01-30T14:34:39Z</time>
      </trkpt>
      <trkpt lat="43.53283" lon="6.59171">
        <ele>304.4</ele>
        <time>2013-01-30T14:35:21Z</time>
      </trkpt>
      <trkpt lat="43.53289" lon="6.59178">
        <ele>301.1</ele>
        <time>2013-01-30T14:36:06Z</time>
      </trkpt>
      <trkpt lat="43.5329" lon="6.59179">
        <ele>300.9</ele>
        <time>2013-01-30T14:36:07Z</time>
      </trkpt>
      <trkpt lat="43.53299" lon="6.59197">
        <ele>296.7</ele>
        <time>2013-01-30T14:36:37Z</time>
      </trkpt>
      <trkpt lat="43.53305" lon="6.59205">
        <ele>295.3</ele>
        <time>2013-01-30T14:36:47Z</time>
      </trkpt>
      <trkpt lat="43.53311" lon="6.59214">
        <ele>294.2</ele>
        <time>2013-01-30T14:36:58Z</time>
      </trkpt>
      <trkpt lat="43.53316" lon="6.59224">
        <ele>295.2</ele>
        <time>2013-01-30T14:37:09Z</time>
      </trkpt>
      <trkpt lat="43.53317" lon="6.59225">
        <ele>295.2</ele>
        <time>2013-01-30T14:37:10Z</time>
      </trkpt>
      <trkpt lat="43.53332" lon="6.59234">
        <ele>298.3</ele>
        <time>2013-01-30T14:37:32Z</time>
      </trkpt>
      <trkpt lat="43.53339" lon="6.59243">
        <ele>299.2</ele>
        <time>2013-01-30T14:37:41Z</time>
      </trkpt>
      <trkpt lat="43.53345" lon="6.5925">
        <ele>301.3</ele>
        <time>2013-01-30T14:37:55Z</time>
      </trkpt>
      <trkpt lat="43.5335" lon="6.5926">
        <ele>302.7</ele>
        <time>2013-01-30T14:38:08Z</time>
      </trkpt>
      <trkpt lat="43.53358" lon="6.59263">
        <ele>305.6</ele>
        <time>2013-01-30T14:38:27Z</time>
      </trkpt>
      <trkpt lat="43.53358" lon="6.59263">
        <ele>305.6</ele>
        <time>2013-01-30T14:38:28Z</time>
      </trkpt>
      <trkpt lat="43.53375" lon="6.59258">
        <ele>310.3</ele>
        <time>2013-01-30T14:38:59Z</time>
      </trkpt>
      <trkpt lat="43.53383" lon="6.59254">
        <ele>312.2</ele>
        <time>2013-01-30T14:39:16Z</time>
      </trkpt>
      <trkpt lat="43.53392" lon="6.59251">
        <ele>313.3</ele>
        <time>2013-01-30T14:39:31Z</time>
      </trkpt>
      <trkpt lat="43.53392" lon="6.5925">
        <ele>313.2</ele>
        <time>2013-01-30T14:39:32Z</time>
      </trkpt>
      <trkpt lat="43.53406" lon="6.59239">
        <ele>315.5</ele>
        <time>2013-01-30T14:39:55Z</time>
      </trkpt>
      <trkpt lat="43.53414" lon="6.59243">
        <ele>317.9</ele>
        <time>2013-01-30T14:40:17Z</time>
      </trkpt>
      <trkpt lat="43.53421" lon="6.5925">
        <ele>320</ele>
        <time>2013-01-30T14:40:28Z</time>
      </trkpt>
      <trkpt lat="43.53427" lon="6.59259">
        <ele>322.4</ele>
        <time>2013-01-30T14:40:44Z</time>
      </trkpt>
      <trkpt lat="43.53428" lon="6.59259">
        <ele>322.4</ele>
        <time>2013-01-30T14:40:45Z</time>
      </trkpt>
      <trkpt lat="43.53441" lon="6.59272">
        <ele>325.7</ele>
        <time>2013-01-30T14:41:13Z</time>
      </trkpt>
      <trkpt lat="43.53448" lon="6.5928">
        <ele>327.4</ele>
        <time>2013-01-30T14:41:24Z</time>
      </trkpt>
      <trkpt lat="43.53456" lon="6.59285">
        <ele>327.9</ele>
        <time>2013-01-30T14:41:34Z</time>
      </trkpt>
      <trkpt lat="43.53461" lon="6.59294">
        <ele>329.5</ele>
        <time>2013-01-30T14:41:45Z</time>
      </trkpt>
      <trkpt lat="43.53462" lon="6.59295">
        <ele>329.7</ele>
        <time>2013-01-30T14:41:46Z</time>
      </trkpt>
      <trkpt lat="43.53475" lon="6.59307">
        <ele>328.7</ele>
        <time>2013-01-30T14:44:38Z</time>
      </trkpt>
      <trkpt lat="43.53475" lon="6.59309">
        <ele>328.8</ele>
        <time>2013-01-30T14:44:39Z</time>
      </trkpt>
      <trkpt lat="43.53474" lon="6.59331">
        <ele>329.1</ele>
        <time>2013-01-30T14:44:54Z</time>
      </trkpt>
      <trkpt lat="43.5347" lon="6.5934">
        <ele>329</ele>
        <time>2013-01-30T14:45:01Z</time>
      </trkpt>
      <trkpt lat="43.53465" lon="6.5935">
        <ele>328.4</ele>
        <time>2013-01-30T14:45:08Z</time>
      </trkpt>
      <trkpt lat="43.53461" lon="6.59359">
        <ele>327.6</ele>
        <time>2013-01-30T14:45:15Z</time>
      </trkpt>
      <trkpt lat="43.53457" lon="6.5937">
        <ele>326.8</ele>
        <time>2013-01-30T14:45:22Z</time>
      </trkpt>
      <trkpt lat="43.53454" lon="6.59382">
        <ele>326.5</ele>
        <time>2013-01-30T14:45:29Z</time>
      </trkpt>
      <trkpt lat="43.53455" lon="6.59392">
        <ele>325.8</ele>
        <time>2013-01-30T14:45:35Z</time>
      </trkpt>
      <trkpt lat="43.53455" lon="6.59403">
        <ele>325.2</ele>
        <time>2013-01-30T14:45:41Z</time>
      </trkpt>
      <trkpt lat="43.53455" lon="6.59405">
        <ele>325.2</ele>
        <time>2013-01-30T14:45:42Z</time>
      </trkpt>
      <trkpt lat="43.53455" lon="6.59426">
        <ele>324.6</ele>
        <time>2013-01-30T14:45:55Z</time>
      </trkpt>
      <trkpt lat="43.53457" lon="6.59438">
        <ele>324.1</ele>
        <time>2013-01-30T14:46:02Z</time>
      </trkpt>
      <trkpt lat="43.53463" lon="6.59446">
        <ele>324</ele>
        <time>2013-01-30T14:46:09Z</time>
      </trkpt>
      <trkpt lat="43.5347" lon="6.59449">
        <ele>324.6</ele>
        <time>2013-01-30T14:46:17Z</time>
      </trkpt>
      <trkpt lat="43.53478" lon="6.59453">
        <ele>324.7</ele>
        <time>2013-01-30T14:46:23Z</time>
      </trkpt>
      <trkpt lat="43.53486" lon="6.59458">
        <ele>324.2</ele>
        <time>2013-01-30T14:46:30Z</time>
      </trkpt>
      <trkpt lat="43.53492" lon="6.59464">
        <ele>324.6</ele>
        <time>2013-01-30T14:46:36Z</time>
      </trkpt>
      <trkpt lat="43.53499" lon="6.59472">
        <ele>324.8</ele>
        <time>2013-01-30T14:46:43Z</time>
      </trkpt>
      <trkpt lat="43.535" lon="6.59473">
        <ele>324.7</ele>
        <time>2013-01-30T14:46:44Z</time>
      </trkpt>
      <trkpt lat="43.53511" lon="6.59486">
        <ele>324.5</ele>
        <time>2013-01-30T14:46:55Z</time>
      </trkpt>
      <trkpt lat="43.53516" lon="6.59495">
        <ele>324.3</ele>
        <time>2013-01-30T14:47:01Z</time>
      </trkpt>
      <trkpt lat="43.5352" lon="6.59505">
        <ele>324.2</ele>
        <time>2013-01-30T14:47:08Z</time>
      </trkpt>
      <trkpt lat="43.53526" lon="6.59513">
        <ele>324.5</ele>
        <time>2013-01-30T14:47:15Z</time>
      </trkpt>
      <trkpt lat="43.53529" lon="6.59525">
        <ele>324.6</ele>
        <time>2013-01-30T14:47:23Z</time>
      </trkpt>
      <trkpt lat="43.53533" lon="6.59535">
        <ele>325.3</ele>
        <time>2013-01-30T14:48:31Z</time>
      </trkpt>
      <trkpt lat="43.53534" lon="6.59535">
        <ele>325.4</ele>
        <time>2013-01-30T14:48:32Z</time>
      </trkpt>
      <trkpt lat="43.53534" lon="6.59559">
        <ele>325.3</ele>
        <time>2013-01-30T14:49:03Z</time>
      </trkpt>
      <trkpt lat="43.53534" lon="6.5957">
        <ele>325</ele>
        <time>2013-01-30T14:49:10Z</time>
      </trkpt>
      <trkpt lat="43.53535" lon="6.5958">
        <ele>324.9</ele>
        <time>2013-01-30T14:49:16Z</time>
      </trkpt>
      <trkpt lat="43.53538" lon="6.59592">
        <ele>325.3</ele>
        <time>2013-01-30T14:49:23Z</time>
      </trkpt>
      <trkpt lat="43.53538" lon="6.59604">
        <ele>325</ele>
        <time>2013-01-30T14:49:30Z</time>
      </trkpt>
      <trkpt lat="43.5354" lon="6.59615">
        <ele>325.7</ele>
        <time>2013-01-30T14:49:37Z</time>
      </trkpt>
      <trkpt lat="43.5354" lon="6.59616">
        <ele>325.7</ele>
        <time>2013-01-30T14:49:38Z</time>
      </trkpt>
      <trkpt lat="43.53544" lon="6.59636">
        <ele>326</ele>
        <time>2013-01-30T14:49:51Z</time>
      </trkpt>
      <trkpt lat="43.53547" lon="6.59647">
        <ele>326.4</ele>
        <time>2013-01-30T14:49:57Z</time>
      </trkpt>
      <trkpt lat="43.53549" lon="6.59658">
        <ele>327.3</ele>
        <time>2013-01-30T14:50:04Z</time>
      </trkpt>
      <trkpt lat="43.53551" lon="6.5967">
        <ele>327.5</ele>
        <time>2013-01-30T14:50:12Z</time>
      </trkpt>
      <trkpt lat="43.53553" lon="6.5968">
        <ele>328.1</ele>
        <time>2013-01-30T14:50:19Z</time>
      </trkpt>
      <trkpt lat="43.53555" lon="6.5969">
        <ele>328.6</ele>
        <time>2013-01-30T14:50:25Z</time>
      </trkpt>
      <trkpt lat="43.53557" lon="6.59701">
        <ele>329.3</ele>
        <time>2013-01-30T14:50:31Z</time>
      </trkpt>
      <trkpt lat="43.53558" lon="6.59714">
        <ele>328.7</ele>
        <time>2013-01-30T14:50:38Z</time>
      </trkpt>
      <trkpt lat="43.53558" lon="6.59716">
        <ele>328.7</ele>
        <time>2013-01-30T14:50:39Z</time>
      </trkpt>
      <trkpt lat="43.53552" lon="6.59735">
        <ele>329.1</ele>
        <time>2013-01-30T14:50:50Z</time>
      </trkpt>
      <trkpt lat="43.53552" lon="6.59747">
        <ele>329.4</ele>
        <time>2013-01-30T14:50:58Z</time>
      </trkpt>
      <trkpt lat="43.5355" lon="6.59759">
        <ele>329.8</ele>
        <time>2013-01-30T14:51:04Z</time>
      </trkpt>
      <trkpt lat="43.53549" lon="6.5977">
        <ele>329.6</ele>
        <time>2013-01-30T14:51:10Z</time>
      </trkpt>
      <trkpt lat="43.53548" lon="6.59782">
        <ele>329.9</ele>
        <time>2013-01-30T14:51:16Z</time>
      </trkpt>
      <trkpt lat="43.53547" lon="6.59794">
        <ele>330.3</ele>
        <time>2013-01-30T14:51:23Z</time>
      </trkpt>
      <trkpt lat="43.53544" lon="6.59805">
        <ele>329.8</ele>
        <time>2013-01-30T14:51:29Z</time>
      </trkpt>
      <trkpt lat="43.53543" lon="6.59816">
        <ele>329.7</ele>
        <time>2013-01-30T14:51:36Z</time>
      </trkpt>
      <trkpt lat="43.53542" lon="6.59828">
        <ele>330.1</ele>
        <time>2013-01-30T14:51:43Z</time>
      </trkpt>
      <trkpt lat="43.53542" lon="6.59829">
        <ele>330.1</ele>
        <time>2013-01-30T14:51:44Z</time>
      </trkpt>
      <trkpt lat="43.53541" lon="6.59852">
        <ele>330.5</ele>
        <time>2013-01-30T14:51:57Z</time>
      </trkpt>
      <trkpt lat="43.53543" lon="6.59863">
        <ele>330.5</ele>
        <time>2013-01-30T14:52:04Z</time>
      </trkpt>
      <trkpt lat="43.53546" lon="6.59874">
        <ele>331.4</ele>
        <time>2013-01-30T14:52:11Z</time>
      </trkpt>
      <trkpt lat="43.5355" lon="6.59884">
        <ele>331.6</ele>
        <time>2013-01-30T14:52:18Z</time>
      </trkpt>
      <trkpt lat="43.53553" lon="6.59894">
        <ele>331.8</ele>
        <time>2013-01-30T14:52:25Z</time>
      </trkpt>
      <trkpt lat="43.53557" lon="6.59904">
        <ele>331.8</ele>
        <time>2013-01-30T14:52:31Z</time>
      </trkpt>
      <trkpt lat="43.53561" lon="6.59913">
        <ele>332.4</ele>
        <time>2013-01-30T14:52:38Z</time>
      </trkpt>
      <trkpt lat="43.53565" lon="6.59923">
        <ele>332.8</ele>
        <time>2013-01-30T14:52:44Z</time>
      </trkpt>
      <trkpt lat="43.53565" lon="6.59925">
        <ele>332.6</ele>
        <time>2013-01-30T14:52:45Z</time>
      </trkpt>
      <trkpt lat="43.53569" lon="6.59945">
        <ele>331.9</ele>
        <time>2013-01-30T14:52:56Z</time>
      </trkpt>
      <trkpt lat="43.5357" lon="6.59955">
        <ele>332.4</ele>
        <time>2013-01-30T14:53:02Z</time>
      </trkpt>
      <trkpt lat="43.53572" lon="6.59966">
        <ele>332.7</ele>
        <time>2013-01-30T14:53:08Z</time>
      </trkpt>
      <trkpt lat="43.53573" lon="6.59978">
        <ele>332.7</ele>
        <time>2013-01-30T14:53:15Z</time>
      </trkpt>
      <trkpt lat="43.53574" lon="6.59989">
        <ele>332.9</ele>
        <time>2013-01-30T14:53:21Z</time>
      </trkpt>
      <trkpt lat="43.53575" lon="6.60001">
        <ele>333.2</ele>
        <time>2013-01-30T14:53:28Z</time>
      </trkpt>
      <trkpt lat="43.53576" lon="6.60013">
        <ele>333.8</ele>
        <time>2013-01-30T14:53:35Z</time>
      </trkpt>
      <trkpt lat="43.53578" lon="6.60025">
        <ele>334.6</ele>
        <time>2013-01-30T14:53:42Z</time>
      </trkpt>
      <trkpt lat="43.53578" lon="6.60036">
        <ele>334.7</ele>
        <time>2013-01-30T14:53:49Z</time>
      </trkpt>
      <trkpt lat="43.53578" lon="6.60038">
        <ele>335</ele>
        <time>2013-01-30T14:53:50Z</time>
      </trkpt>
      <trkpt lat="43.53582" lon="6.60058">
        <ele>336.1</ele>
        <time>2013-01-30T14:54:02Z</time>
      </trkpt>
      <trkpt lat="43.53583" lon="6.60069">
        <ele>336.2</ele>
        <time>2013-01-30T14:54:08Z</time>
      </trkpt>
      <trkpt lat="43.53586" lon="6.6008">
        <ele>336.3</ele>
        <time>2013-01-30T14:54:14Z</time>
      </trkpt>
      <trkpt lat="43.53587" lon="6.6009">
        <ele>337.1</ele>
        <time>2013-01-30T14:54:20Z</time>
      </trkpt>
      <trkpt lat="43.53588" lon="6.60101">
        <ele>338</ele>
        <time>2013-01-30T14:54:26Z</time>
      </trkpt>
      <trkpt lat="43.5359" lon="6.60112">
        <ele>338.3</ele>
        <time>2013-01-30T14:54:33Z</time>
      </trkpt>
      <trkpt lat="43.53593" lon="6.60124">
        <ele>339</ele>
        <time>2013-01-30T14:54:40Z</time>
      </trkpt>
      <trkpt lat="43.53596" lon="6.60134">
        <ele>339.7</ele>
        <time>2013-01-30T14:54:46Z</time>
      </trkpt>
      <trkpt lat="43.53599" lon="6.60145">
        <ele>339.8</ele>
        <time>2013-01-30T14:54:53Z</time>
      </trkpt>
      <trkpt lat="43.53599" lon="6.60146">
        <ele>339.8</ele>
        <time>2013-01-30T14:54:54Z</time>
      </trkpt>
      <trkpt lat="43.53609" lon="6.60162">
        <ele>339.9</ele>
        <time>2013-01-30T14:55:05Z</time>
      </trkpt>
      <trkpt lat="43.53614" lon="6.60169">
        <ele>340.1</ele>
        <time>2013-01-30T14:55:11Z</time>
      </trkpt>
      <trkpt lat="43.53621" lon="6.60176">
        <ele>340.4</ele>
        <time>2013-01-30T14:55:16Z</time>
      </trkpt>
      <trkpt lat="43.53628" lon="6.60181">
        <ele>341.2</ele>
        <time>2013-01-30T14:55:22Z</time>
      </trkpt>
      <trkpt lat="43.53634" lon="6.60189">
        <ele>342</ele>
        <time>2013-01-30T14:55:28Z</time>
      </trkpt>
      <trkpt lat="43.5364" lon="6.60197">
        <ele>342.3</ele>
        <time>2013-01-30T14:55:34Z</time>
      </trkpt>
      <trkpt lat="43.53646" lon="6.60205">
        <ele>342.8</ele>
        <time>2013-01-30T14:55:42Z</time>
      </trkpt>
      <trkpt lat="43.53648" lon="6.60216">
        <ele>342.6</ele>
        <time>2013-01-30T14:55:49Z</time>
      </trkpt>
      <trkpt lat="43.53643" lon="6.60224">
        <ele>342.7</ele>
        <time>2013-01-30T14:55:56Z</time>
      </trkpt>
      <trkpt lat="43.53642" lon="6.60225">
        <ele>342.8</ele>
        <time>2013-01-30T14:55:57Z</time>
      </trkpt>
      <trkpt lat="43.53626" lon="6.60228">
        <ele>342.9</ele>
        <time>2013-01-30T14:56:07Z</time>
      </trkpt>
      <trkpt lat="43.53618" lon="6.60229">
        <ele>343</ele>
        <time>2013-01-30T14:56:14Z</time>
      </trkpt>
      <trkpt lat="43.5361" lon="6.60232">
        <ele>342.8</ele>
        <time>2013-01-30T14:56:20Z</time>
      </trkpt>
      <trkpt lat="43.53604" lon="6.60238">
        <ele>342.6</ele>
        <time>2013-01-30T14:56:26Z</time>
      </trkpt>
      <trkpt lat="43.53599" lon="6.60248">
        <ele>343.1</ele>
        <time>2013-01-30T14:56:33Z</time>
      </trkpt>
      <trkpt lat="43.53595" lon="6.60258">
        <ele>343.2</ele>
        <time>2013-01-30T14:56:39Z</time>
      </trkpt>
      <trkpt lat="43.53593" lon="6.60269">
        <ele>343.4</ele>
        <time>2013-01-30T14:56:45Z</time>
      </trkpt>
      <trkpt lat="43.53592" lon="6.6028">
        <ele>343.2</ele>
        <time>2013-01-30T14:56:52Z</time>
      </trkpt>
      <trkpt lat="43.53591" lon="6.60291">
        <ele>343.3</ele>
        <time>2013-01-30T14:56:58Z</time>
      </trkpt>
      <trkpt lat="43.53591" lon="6.60293">
        <ele>343.7</ele>
        <time>2013-01-30T14:56:59Z</time>
      </trkpt>
      <trkpt lat="43.53589" lon="6.60315">
        <ele>344.5</ele>
        <time>2013-01-30T14:57:12Z</time>
      </trkpt>
      <trkpt lat="43.53589" lon="6.60326">
        <ele>344.6</ele>
        <time>2013-01-30T14:57:19Z</time>
      </trkpt>
      <trkpt lat="43.53591" lon="6.60336">
        <ele>344.7</ele>
        <time>2013-01-30T14:57:25Z</time>
      </trkpt>
      <trkpt lat="43.53593" lon="6.60348">
        <ele>344.9</ele>
        <time>2013-01-30T14:57:32Z</time>
      </trkpt>
      <trkpt lat="43.53594" lon="6.6036">
        <ele>345.2</ele>
        <time>2013-01-30T14:57:39Z</time>
      </trkpt>
      <trkpt lat="43.53594" lon="6.60372">
        <ele>345.6</ele>
        <time>2013-01-30T14:57:46Z</time>
      </trkpt>
      <trkpt lat="43.53596" lon="6.60383">
        <ele>346.6</ele>
        <time>2013-01-30T14:57:53Z</time>
      </trkpt>
      <trkpt lat="43.53597" lon="6.60394">
        <ele>346.6</ele>
        <time>2013-01-30T14:57:59Z</time>
      </trkpt>
      <trkpt lat="43.53597" lon="6.60396">
        <ele>346.8</ele>
        <time>2013-01-30T14:58:00Z</time>
      </trkpt>
      <trkpt lat="43.53598" lon="6.60417">
        <ele>347.6</ele>
        <time>2013-01-30T14:58:12Z</time>
      </trkpt>
      <trkpt lat="43.536" lon="6.60429">
        <ele>348.1</ele>
        <time>2013-01-30T14:58:19Z</time>
      </trkpt>
      <trkpt lat="43.53601" lon="6.6044">
        <ele>348.4</ele>
        <time>2013-01-30T14:58:25Z</time>
      </trkpt>
      <trkpt lat="43.53601" lon="6.60451">
        <ele>348.9</ele>
        <time>2013-01-30T14:58:32Z</time>
      </trkpt>
      <trkpt lat="43.536" lon="6.60463">
        <ele>349.6</ele>
        <time>2013-01-30T14:58:41Z</time>
      </trkpt>
      <trkpt lat="43.53599" lon="6.60473">
        <ele>350.4</ele>
        <time>2013-01-30T14:58:47Z</time>
      </trkpt>
      <trkpt lat="43.53596" lon="6.60484">
        <ele>350.7</ele>
        <time>2013-01-30T14:58:52Z</time>
      </trkpt>
      <trkpt lat="43.53596" lon="6.60496">
        <ele>350.9</ele>
        <time>2013-01-30T14:58:58Z</time>
      </trkpt>
      <trkpt lat="43.53596" lon="6.60508">
        <ele>351.3</ele>
        <time>2013-01-30T14:59:05Z</time>
      </trkpt>
      <trkpt lat="43.53596" lon="6.6051">
        <ele>351.4</ele>
        <time>2013-01-30T14:59:06Z</time>
      </trkpt>
      <trkpt lat="43.53598" lon="6.60531">
        <ele>352.6</ele>
        <time>2013-01-30T14:59:18Z</time>
      </trkpt>
      <trkpt lat="43.53602" lon="6.60541">
        <ele>352.9</ele>
        <time>2013-01-30T14:59:24Z</time>
      </trkpt>
      <trkpt lat="43.53605" lon="6.60551">
        <ele>353.3</ele>
        <time>2013-01-30T14:59:30Z</time>
      </trkpt>
      <trkpt lat="43.53608" lon="6.60561">
        <ele>353.4</ele>
        <time>2013-01-30T14:59:36Z</time>
      </trkpt>
      <trkpt lat="43.5361" lon="6.60573">
        <ele>353.9</ele>
        <time>2013-01-30T14:59:43Z</time>
      </trkpt>
      <trkpt lat="43.53613" lon="6.60584">
        <ele>354.4</ele>
        <time>2013-01-30T14:59:50Z</time>
      </trkpt>
      <trkpt lat="43.53614" lon="6.60596">
        <ele>355.2</ele>
        <time>2013-01-30T14:59:57Z</time>
      </trkpt>
      <trkpt lat="43.53616" lon="6.60607">
        <ele>355.7</ele>
        <time>2013-01-30T15:00:03Z</time>
      </trkpt>
      <trkpt lat="43.53616" lon="6.60619">
        <ele>355.9</ele>
        <time>2013-01-30T15:00:10Z</time>
      </trkpt>
      <trkpt lat="43.53616" lon="6.6062">
        <ele>356.2</ele>
        <time>2013-01-30T15:00:11Z</time>
      </trkpt>
      <trkpt lat="43.53623" lon="6.60641">
        <ele>357.4</ele>
        <time>2013-01-30T15:00:24Z</time>
      </trkpt>
      <trkpt lat="43.53626" lon="6.60652">
        <ele>358.2</ele>
        <time>2013-01-30T15:00:31Z</time>
      </trkpt>
      <trkpt lat="43.53629" lon="6.60662">
        <ele>359</ele>
        <time>2013-01-30T15:00:38Z</time>
      </trkpt>
      <trkpt lat="43.53632" lon="6.60674">
        <ele>360.2</ele>
        <time>2013-01-30T15:00:46Z</time>
      </trkpt>
      <trkpt lat="43.53634" lon="6.60685">
        <ele>361</ele>
        <time>2013-01-30T15:00:53Z</time>
      </trkpt>
      <trkpt lat="43.53637" lon="6.60696">
        <ele>361.7</ele>
        <time>2013-01-30T15:01:00Z</time>
      </trkpt>
      <trkpt lat="43.53642" lon="6.60706">
        <ele>362</ele>
        <time>2013-01-30T15:01:07Z</time>
      </trkpt>
      <trkpt lat="43.53646" lon="6.60717">
        <ele>363.1</ele>
        <time>2013-01-30T15:01:14Z</time>
      </trkpt>
      <trkpt lat="43.53647" lon="6.60718">
        <ele>363.2</ele>
        <time>2013-01-30T15:01:15Z</time>
      </trkpt>
      <trkpt lat="43.53654" lon="6.60737">
        <ele>364</ele>
        <time>2013-01-30T15:01:28Z</time>
      </trkpt>
      <trkpt lat="43.53658" lon="6.60748">
        <ele>364.9</ele>
        <time>2013-01-30T15:01:35Z</time>
      </trkpt>
      <trkpt lat="43.53659" lon="6.6076">
        <ele>365.5</ele>
        <time>2013-01-30T15:01:42Z</time>
      </trkpt>
      <trkpt lat="43.53659" lon="6.60772">
        <ele>366.6</ele>
        <time>2013-01-30T15:01:51Z</time>
      </trkpt>
      <trkpt lat="43.53662" lon="6.60782">
        <ele>367.2</ele>
        <time>2013-01-30T15:01:58Z</time>
      </trkpt>
      <trkpt lat="43.53664" lon="6.60793">
        <ele>368.4</ele>
        <time>2013-01-30T15:02:06Z</time>
      </trkpt>
      <trkpt lat="43.5367" lon="6.60802">
        <ele>369.7</ele>
        <time>2013-01-30T15:02:18Z</time>
      </trkpt>
      <trkpt lat="43.5367" lon="6.60803">
        <ele>369.8</ele>
        <time>2013-01-30T15:02:19Z</time>
      </trkpt>
      <trkpt lat="43.53682" lon="6.60787">
        <ele>370.8</ele>
        <time>2013-01-30T15:02:50Z</time>
      </trkpt>
      <trkpt lat="43.53687" lon="6.60778">
        <ele>371.8</ele>
        <time>2013-01-30T15:02:58Z</time>
      </trkpt>
      <trkpt lat="43.53692" lon="6.60769">
        <ele>372.9</ele>
        <time>2013-01-30T15:03:06Z</time>
      </trkpt>
      <trkpt lat="43.53697" lon="6.60759">
        <ele>373.7</ele>
        <time>2013-01-30T15:03:15Z</time>
      </trkpt>
      <trkpt lat="43.53703" lon="6.60751">
        <ele>374.6</ele>
        <time>2013-01-30T15:03:23Z</time>
      </trkpt>
      <trkpt lat="43.53704" lon="6.6075">
        <ele>374.7</ele>
        <time>2013-01-30T15:03:24Z</time>
      </trkpt>
      <trkpt lat="43.53719" lon="6.60745">
        <ele>376.5</ele>
        <time>2013-01-30T15:03:40Z</time>
      </trkpt>
      <trkpt lat="43.53727" lon="6.60748">
        <ele>378</ele>
        <time>2013-01-30T15:03:48Z</time>
      </trkpt>
      <trkpt lat="43.53733" lon="6.60753">
        <ele>379.1</ele>
        <time>2013-01-30T15:03:54Z</time>
      </trkpt>
      <trkpt lat="43.53741" lon="6.60758">
        <ele>380</ele>
        <time>2013-01-30T15:04:01Z</time>
      </trkpt>
      <trkpt lat="43.53748" lon="6.60764">
        <ele>381.8</ele>
        <time>2013-01-30T15:04:08Z</time>
      </trkpt>
      <trkpt lat="43.53756" lon="6.60769">
        <ele>381.9</ele>
        <time>2013-01-30T15:04:14Z</time>
      </trkpt>
      <trkpt lat="43.53761" lon="6.60777">
        <ele>383.3</ele>
        <time>2013-01-30T15:04:23Z</time>
      </trkpt>
      <trkpt lat="43.53768" lon="6.60786">
        <ele>384.6</ele>
        <time>2013-01-30T15:04:31Z</time>
      </trkpt>
      <trkpt lat="43.53769" lon="6.60787">
        <ele>384.8</ele>
        <time>2013-01-30T15:04:32Z</time>
      </trkpt>
      <trkpt lat="43.53783" lon="6.60792">
        <ele>386.7</ele>
        <time>2013-01-30T15:04:46Z</time>
      </trkpt>
      <trkpt lat="43.53791" lon="6.60796">
        <ele>388</ele>
        <time>2013-01-30T15:04:54Z</time>
      </trkpt>
      <trkpt lat="43.53799" lon="6.60801">
        <ele>389.1</ele>
        <time>2013-01-30T15:05:02Z</time>
      </trkpt>
      <trkpt lat="43.53807" lon="6.60805">
        <ele>390.2</ele>
        <time>2013-01-30T15:05:09Z</time>
      </trkpt>
      <trkpt lat="43.53815" lon="6.60809">
        <ele>391.4</ele>
        <time>2013-01-30T15:05:17Z</time>
      </trkpt>
      <trkpt lat="43.53823" lon="6.60809">
        <ele>392.6</ele>
        <time>2013-01-30T15:05:25Z</time>
      </trkpt>
      <trkpt lat="43.53831" lon="6.60808">
        <ele>393.9</ele>
        <time>2013-01-30T15:05:32Z</time>
      </trkpt>
      <trkpt lat="43.53832" lon="6.60808">
        <ele>394</ele>
        <time>2013-01-30T15:05:33Z</time>
      </trkpt>
      <trkpt lat="43.53846" lon="6.60799">
        <ele>395.8</ele>
        <time>2013-01-30T15:05:46Z</time>
      </trkpt>
      <trkpt lat="43.53854" lon="6.60792">
        <ele>397.6</ele>
        <time>2013-01-30T15:05:55Z</time>
      </trkpt>
      <trkpt lat="43.53861" lon="6.60785">
        <ele>398.5</ele>
        <time>2013-01-30T15:06:02Z</time>
      </trkpt>
      <trkpt lat="43.53867" lon="6.60779">
        <ele>399.6</ele>
        <time>2013-01-30T15:06:09Z</time>
      </trkpt>
      <trkpt lat="43.53873" lon="6.60772">
        <ele>399.5</ele>
        <time>2013-01-30T15:06:15Z</time>
      </trkpt>
      <trkpt lat="43.5388" lon="6.60765">
        <ele>400.6</ele>
        <time>2013-01-30T15:06:23Z</time>
      </trkpt>
      <trkpt lat="43.53889" lon="6.60762">
        <ele>401.2</ele>
        <time>2013-01-30T15:06:31Z</time>
      </trkpt>
      <trkpt lat="43.53897" lon="6.60765">
        <ele>402.6</ele>
        <time>2013-01-30T15:06:39Z</time>
      </trkpt>
      <trkpt lat="43.53898" lon="6.60766">
        <ele>402.8</ele>
        <time>2013-01-30T15:06:40Z</time>
      </trkpt>
      <trkpt lat="43.53911" lon="6.60776">
        <ele>403.9</ele>
        <time>2013-01-30T15:06:52Z</time>
      </trkpt>
      <trkpt lat="43.53918" lon="6.60782">
        <ele>404.5</ele>
        <time>2013-01-30T15:06:59Z</time>
      </trkpt>
      <trkpt lat="43.53926" lon="6.60787">
        <ele>405.3</ele>
        <time>2013-01-30T15:07:07Z</time>
      </trkpt>
      <trkpt lat="43.53934" lon="6.60789">
        <ele>405.9</ele>
        <time>2013-01-30T15:07:13Z</time>
      </trkpt>
      <trkpt lat="43.53942" lon="6.60791">
        <ele>406.9</ele>
        <time>2013-01-30T15:07:21Z</time>
      </trkpt>
      <trkpt lat="43.53951" lon="6.60791">
        <ele>408</ele>
        <time>2013-01-30T15:07:28Z</time>
      </trkpt>
      <trkpt lat="43.53958" lon="6.60789">
        <ele>408.5</ele>
        <time>2013-01-30T15:07:34Z</time>
      </trkpt>
      <trkpt lat="43.53967" lon="6.60787">
        <ele>408.7</ele>
        <time>2013-01-30T15:07:41Z</time>
      </trkpt>
      <trkpt lat="43.53968" lon="6.60787">
        <ele>408.8</ele>
        <time>2013-01-30T15:07:42Z</time>
      </trkpt>
      <trkpt lat="43.53983" lon="6.60788">
        <ele>410.1</ele>
        <time>2013-01-30T15:07:54Z</time>
      </trkpt>
      <trkpt lat="43.53992" lon="6.6079">
        <ele>410.9</ele>
        <time>2013-01-30T15:08:01Z</time>
      </trkpt>
      <trkpt lat="43.54" lon="6.60794">
        <ele>410.4</ele>
        <time>2013-01-30T15:08:08Z</time>
      </trkpt>
      <trkpt lat="43.54008" lon="6.608">
        <ele>410.7</ele>
        <time>2013-01-30T15:08:25Z</time>
      </trkpt>
      <trkpt lat="43.54011" lon="6.60811">
        <ele>410.5</ele>
        <time>2013-01-30T15:08:34Z</time>
      </trkpt>
      <trkpt lat="43.54005" lon="6.60803">
        <ele>409.8</ele>
        <time>2013-01-30T15:12:17Z</time>
      </trkpt>
      <trkpt lat="43.54004" lon="6.60803">
        <ele>409.5</ele>
        <time>2013-01-30T15:12:18Z</time>
      </trkpt>
      <trkpt lat="43.54018" lon="6.6079">
        <ele>409.8</ele>
        <time>2013-01-30T15:14:10Z</time>
      </trkpt>
      <trkpt lat="43.54018" lon="6.60789">
        <ele>409.7</ele>
        <time>2013-01-30T15:14:11Z</time>
      </trkpt>
      <trkpt lat="43.54028" lon="6.60772">
        <ele>408.5</ele>
        <time>2013-01-30T15:14:28Z</time>
      </trkpt>
      <trkpt lat="43.54032" lon="6.60761">
        <ele>407</ele>
        <time>2013-01-30T15:14:36Z</time>
      </trkpt>
      <trkpt lat="43.54036" lon="6.60751">
        <ele>407.2</ele>
        <time>2013-01-30T15:14:44Z</time>
      </trkpt>
      <trkpt lat="43.54039" lon="6.6074">
        <ele>406.5</ele>
        <time>2013-01-30T15:14:52Z</time>
      </trkpt>
      <trkpt lat="43.54043" lon="6.6073">
        <ele>406.3</ele>
        <time>2013-01-30T15:14:59Z</time>
      </trkpt>
      <trkpt lat="43.54048" lon="6.60721">
        <ele>404.6</ele>
        <time>2013-01-30T15:15:07Z</time>
      </trkpt>
      <trkpt lat="43.54052" lon="6.6071">
        <ele>403.8</ele>
        <time>2013-01-30T15:15:16Z</time>
      </trkpt>
      <trkpt lat="43.54054" lon="6.60709">
        <ele>403.7</ele>
        <time>2013-01-30T15:15:17Z</time>
      </trkpt>
      <trkpt lat="43.54065" lon="6.60694">
        <ele>403.3</ele>
        <time>2013-01-30T15:15:31Z</time>
      </trkpt>
      <trkpt lat="43.54071" lon="6.60686">
        <ele>402.5</ele>
        <time>2013-01-30T15:15:40Z</time>
      </trkpt>
      <trkpt lat="43.54078" lon="6.60678">
        <ele>401.2</ele>
        <time>2013-01-30T15:15:49Z</time>
      </trkpt>
      <trkpt lat="43.54085" lon="6.60672">
        <ele>400.3</ele>
        <time>2013-01-30T15:15:57Z</time>
      </trkpt>
      <trkpt lat="43.54091" lon="6.60663">
        <ele>398.8</ele>
        <time>2013-01-30T15:16:06Z</time>
      </trkpt>
      <trkpt lat="43.54098" lon="6.60657">
        <ele>397.3</ele>
        <time>2013-01-30T15:16:14Z</time>
      </trkpt>
      <trkpt lat="43.54106" lon="6.6065">
        <ele>396.9</ele>
        <time>2013-01-30T15:16:21Z</time>
      </trkpt>
      <trkpt lat="43.54107" lon="6.6065">
        <ele>396.6</ele>
        <time>2013-01-30T15:16:22Z</time>
      </trkpt>
      <trkpt lat="43.54122" lon="6.60643">
        <ele>394.3</ele>
        <time>2013-01-30T15:16:38Z</time>
      </trkpt>
      <trkpt lat="43.54129" lon="6.60636">
        <ele>393.1</ele>
        <time>2013-01-30T15:16:48Z</time>
      </trkpt>
      <trkpt lat="43.54135" lon="6.60629">
        <ele>392.5</ele>
        <time>2013-01-30T15:16:55Z</time>
      </trkpt>
      <trkpt lat="43.54144" lon="6.6063">
        <ele>391.2</ele>
        <time>2013-01-30T15:17:05Z</time>
      </trkpt>
      <trkpt lat="43.54146" lon="6.60642">
        <ele>390</ele>
        <time>2013-01-30T15:17:14Z</time>
      </trkpt>
      <trkpt lat="43.54146" lon="6.60654">
        <ele>389.4</ele>
        <time>2013-01-30T15:17:23Z</time>
      </trkpt>
      <trkpt lat="43.54146" lon="6.60655">
        <ele>389.1</ele>
        <time>2013-01-30T15:17:24Z</time>
      </trkpt>
      <trkpt lat="43.54155" lon="6.60669">
        <ele>387.7</ele>
        <time>2013-01-30T15:17:46Z</time>
      </trkpt>
      <trkpt lat="43.54161" lon="6.60662">
        <ele>386.7</ele>
        <time>2013-01-30T15:17:55Z</time>
      </trkpt>
      <trkpt lat="43.54166" lon="6.60653">
        <ele>386</ele>
        <time>2013-01-30T15:18:03Z</time>
      </trkpt>
      <trkpt lat="43.54173" lon="6.60647">
        <ele>384.2</ele>
        <time>2013-01-30T15:18:12Z</time>
      </trkpt>
      <trkpt lat="43.54181" lon="6.60643">
        <ele>383.4</ele>
        <time>2013-01-30T15:18:19Z</time>
      </trkpt>
      <trkpt lat="43.54189" lon="6.60641">
        <ele>382.8</ele>
        <time>2013-01-30T15:18:27Z</time>
      </trkpt>
      <trkpt lat="43.5419" lon="6.6064">
        <ele>382.7</ele>
        <time>2013-01-30T15:18:28Z</time>
      </trkpt>
      <trkpt lat="43.54205" lon="6.60629">
        <ele>381</ele>
        <time>2013-01-30T15:18:45Z</time>
      </trkpt>
      <trkpt lat="43.54211" lon="6.60621">
        <ele>379.3</ele>
        <time>2013-01-30T15:18:55Z</time>
      </trkpt>
      <trkpt lat="43.54213" lon="6.60611">
        <ele>378.3</ele>
        <time>2013-01-30T15:19:04Z</time>
      </trkpt>
      <trkpt lat="43.54214" lon="6.606">
        <ele>378.4</ele>
        <time>2013-01-30T15:19:11Z</time>
      </trkpt>
      <trkpt lat="43.54212" lon="6.60589">
        <ele>378.1</ele>
        <time>2013-01-30T15:19:19Z</time>
      </trkpt>
      <trkpt lat="43.5421" lon="6.60578">
        <ele>378.7</ele>
        <time>2013-01-30T15:19:26Z</time>
      </trkpt>
      <trkpt lat="43.5421" lon="6.60566">
        <ele>379.2</ele>
        <time>2013-01-30T15:19:34Z</time>
      </trkpt>
      <trkpt lat="43.54211" lon="6.60564">
        <ele>379.4</ele>
        <time>2013-01-30T15:19:35Z</time>
      </trkpt>
      <trkpt lat="43.54204" lon="6.60543">
        <ele>380.5</ele>
        <time>2013-01-30T15:19:50Z</time>
      </trkpt>
      <trkpt lat="43.54201" lon="6.60532">
        <ele>381.4</ele>
        <time>2013-01-30T15:19:58Z</time>
      </trkpt>
      <trkpt lat="43.54199" lon="6.6052">
        <ele>381.8</ele>
        <time>2013-01-30T15:20:06Z</time>
      </trkpt>
      <trkpt lat="43.542" lon="6.60509">
        <ele>381.3</ele>
        <time>2013-01-30T15:20:12Z</time>
      </trkpt>
      <trkpt lat="43.54201" lon="6.60498">
        <ele>381.6</ele>
        <time>2013-01-30T15:20:19Z</time>
      </trkpt>
      <trkpt lat="43.54202" lon="6.60486">
        <ele>381.3</ele>
        <time>2013-01-30T15:20:27Z</time>
      </trkpt>
      <trkpt lat="43.54205" lon="6.60475">
        <ele>381.3</ele>
        <time>2013-01-30T15:20:35Z</time>
      </trkpt>
      <trkpt lat="43.54206" lon="6.60474">
        <ele>381.1</ele>
        <time>2013-01-30T15:20:36Z</time>
      </trkpt>
      <trkpt lat="43.54211" lon="6.60453">
        <ele>381.6</ele>
        <time>2013-01-30T15:20:51Z</time>
      </trkpt>
      <trkpt lat="43.54211" lon="6.60441">
        <ele>381.8</ele>
        <time>2013-01-30T15:20:58Z</time>
      </trkpt>
      <trkpt lat="43.54212" lon="6.60431">
        <ele>381.4</ele>
        <time>2013-01-30T15:21:05Z</time>
      </trkpt>
      <trkpt lat="43.54213" lon="6.60419">
        <ele>381.4</ele>
        <time>2013-01-30T15:21:12Z</time>
      </trkpt>
      <trkpt lat="43.54216" lon="6.60408">
        <ele>381.3</ele>
        <time>2013-01-30T15:21:19Z</time>
      </trkpt>
      <trkpt lat="43.54219" lon="6.60398">
        <ele>381.4</ele>
        <time>2013-01-30T15:21:25Z</time>
      </trkpt>
      <trkpt lat="43.54223" lon="6.60389">
        <ele>381.1</ele>
        <time>2013-01-30T15:21:31Z</time>
      </trkpt>
      <trkpt lat="43.54226" lon="6.60378">
        <ele>382.2</ele>
        <time>2013-01-30T15:21:38Z</time>
      </trkpt>
      <trkpt lat="43.54226" lon="6.60376">
        <ele>382.2</ele>
        <time>2013-01-30T15:21:39Z</time>
      </trkpt>
      <trkpt lat="43.54231" lon="6.60358">
        <ele>382</ele>
        <time>2013-01-30T15:21:51Z</time>
      </trkpt>
      <trkpt lat="43.54235" lon="6.60348">
        <ele>383.3</ele>
        <time>2013-01-30T15:21:59Z</time>
      </trkpt>
      <trkpt lat="43.54239" lon="6.60338">
        <ele>384</ele>
        <time>2013-01-30T15:22:08Z</time>
      </trkpt>
      <trkpt lat="43.5424" lon="6.60325">
        <ele>384.9</ele>
        <time>2013-01-30T15:22:18Z</time>
      </trkpt>
      <trkpt lat="43.54243" lon="6.60315">
        <ele>385.4</ele>
        <time>2013-01-30T15:22:25Z</time>
      </trkpt>
      <trkpt lat="43.54248" lon="6.60305">
        <ele>386.3</ele>
        <time>2013-01-30T15:22:33Z</time>
      </trkpt>
      <trkpt lat="43.54251" lon="6.60295">
        <ele>387</ele>
        <time>2013-01-30T15:22:40Z</time>
      </trkpt>
      <trkpt lat="43.54252" lon="6.60293">
        <ele>387</ele>
        <time>2013-01-30T15:22:41Z</time>
      </trkpt>
      <trkpt lat="43.54259" lon="6.60274">
        <ele>389.3</ele>
        <time>2013-01-30T15:22:57Z</time>
      </trkpt>
      <trkpt lat="43.54265" lon="6.60267">
        <ele>389.8</ele>
        <time>2013-01-30T15:23:03Z</time>
      </trkpt>
      <trkpt lat="43.5427" lon="6.60258">
        <ele>390.6</ele>
        <time>2013-01-30T15:23:10Z</time>
      </trkpt>
      <trkpt lat="43.54275" lon="6.60249">
        <ele>390.7</ele>
        <time>2013-01-30T15:23:17Z</time>
      </trkpt>
      <trkpt lat="43.54276" lon="6.60237">
        <ele>390.6</ele>
        <time>2013-01-30T15:23:24Z</time>
      </trkpt>
      <trkpt lat="43.54279" lon="6.60225">
        <ele>390.8</ele>
        <time>2013-01-30T15:23:32Z</time>
      </trkpt>
      <trkpt lat="43.54283" lon="6.60217">
        <ele>390.9</ele>
        <time>2013-01-30T15:23:37Z</time>
      </trkpt>
      <trkpt lat="43.54289" lon="6.60208">
        <ele>391.2</ele>
        <time>2013-01-30T15:23:43Z</time>
      </trkpt>
      <trkpt lat="43.5429" lon="6.60207">
        <ele>391</ele>
        <time>2013-01-30T15:23:44Z</time>
      </trkpt>
      <trkpt lat="43.54299" lon="6.60189">
        <ele>390.7</ele>
        <time>2013-01-30T15:23:57Z</time>
      </trkpt>
      <trkpt lat="43.54302" lon="6.60179">
        <ele>390.8</ele>
        <time>2013-01-30T15:24:05Z</time>
      </trkpt>
      <trkpt lat="43.54305" lon="6.60168">
        <ele>391.3</ele>
        <time>2013-01-30T15:24:12Z</time>
      </trkpt>
      <trkpt lat="43.54308" lon="6.60156">
        <ele>391.4</ele>
        <time>2013-01-30T15:24:19Z</time>
      </trkpt>
      <trkpt lat="43.54311" lon="6.60145">
        <ele>391.9</ele>
        <time>2013-01-30T15:24:26Z</time>
      </trkpt>
      <trkpt lat="43.54312" lon="6.60134">
        <ele>391.8</ele>
        <time>2013-01-30T15:24:42Z</time>
      </trkpt>
      <trkpt lat="43.54315" lon="6.60122">
        <ele>392.1</ele>
        <time>2013-01-30T15:24:53Z</time>
      </trkpt>
      <trkpt lat="43.54315" lon="6.60121">
        <ele>392.2</ele>
        <time>2013-01-30T15:24:54Z</time>
      </trkpt>
      <trkpt lat="43.54318" lon="6.601">
        <ele>392</ele>
        <time>2013-01-30T15:25:09Z</time>
      </trkpt>
      <trkpt lat="43.54318" lon="6.60088">
        <ele>392.5</ele>
        <time>2013-01-30T15:25:18Z</time>
      </trkpt>
      <trkpt lat="43.5432" lon="6.60077">
        <ele>392.4</ele>
        <time>2013-01-30T15:25:27Z</time>
      </trkpt>
      <trkpt lat="43.54324" lon="6.60066">
        <ele>392.7</ele>
        <time>2013-01-30T15:25:39Z</time>
      </trkpt>
      <trkpt lat="43.54328" lon="6.60057">
        <ele>392.5</ele>
        <time>2013-01-30T15:25:48Z</time>
      </trkpt>
      <trkpt lat="43.54331" lon="6.60045">
        <ele>392.4</ele>
        <time>2013-01-30T15:25:57Z</time>
      </trkpt>
      <trkpt lat="43.54331" lon="6.60044">
        <ele>392.4</ele>
        <time>2013-01-30T15:25:58Z</time>
      </trkpt>
      <trkpt lat="43.54336" lon="6.60023">
        <ele>391.4</ele>
        <time>2013-01-30T15:26:19Z</time>
      </trkpt>
      <trkpt lat="43.54338" lon="6.60012">
        <ele>391.1</ele>
        <time>2013-01-30T15:26:27Z</time>
      </trkpt>
      <trkpt lat="43.54338" lon="6.6">
        <ele>391.3</ele>
        <time>2013-01-30T15:26:35Z</time>
      </trkpt>
      <trkpt lat="43.54336" lon="6.59989">
        <ele>391.3</ele>
        <time>2013-01-30T15:26:44Z</time>
      </trkpt>
      <trkpt lat="43.54334" lon="6.59979">
        <ele>391.9</ele>
        <time>2013-01-30T15:26:52Z</time>
      </trkpt>
      <trkpt lat="43.54334" lon="6.59967">
        <ele>392.7</ele>
        <time>2013-01-30T15:27:02Z</time>
      </trkpt>
      <trkpt lat="43.54333" lon="6.59966">
        <ele>392.7</ele>
        <time>2013-01-30T15:27:03Z</time>
      </trkpt>
      <trkpt lat="43.54337" lon="6.59944">
        <ele>393.3</ele>
        <time>2013-01-30T15:27:18Z</time>
      </trkpt>
      <trkpt lat="43.54334" lon="6.59934">
        <ele>393.5</ele>
        <time>2013-01-30T15:27:25Z</time>
      </trkpt>
      <trkpt lat="43.54328" lon="6.59925">
        <ele>393.3</ele>
        <time>2013-01-30T15:27:33Z</time>
      </trkpt>
      <trkpt lat="43.54322" lon="6.59916">
        <ele>392.8</ele>
        <time>2013-01-30T15:27:42Z</time>
      </trkpt>
      <trkpt lat="43.54316" lon="6.59907">
        <ele>393.2</ele>
        <time>2013-01-30T15:27:52Z</time>
      </trkpt>
      <trkpt lat="43.54313" lon="6.59897">
        <ele>393.3</ele>
        <time>2013-01-30T15:28:00Z</time>
      </trkpt>
      <trkpt lat="43.54313" lon="6.59885">
        <ele>393.4</ele>
        <time>2013-01-30T15:28:12Z</time>
      </trkpt>
      <trkpt lat="43.54312" lon="6.59884">
        <ele>393.3</ele>
        <time>2013-01-30T15:28:13Z</time>
      </trkpt>
      <trkpt lat="43.54306" lon="6.59864">
        <ele>392.5</ele>
        <time>2013-01-30T15:28:30Z</time>
      </trkpt>
      <trkpt lat="43.54303" lon="6.59853">
        <ele>391.1</ele>
        <time>2013-01-30T15:28:38Z</time>
      </trkpt>
      <trkpt lat="43.54298" lon="6.59843">
        <ele>389.4</ele>
        <time>2013-01-30T15:28:45Z</time>
      </trkpt>
      <trkpt lat="43.54294" lon="6.59834">
        <ele>388.3</ele>
        <time>2013-01-30T15:28:51Z</time>
      </trkpt>
      <trkpt lat="43.54288" lon="6.59825">
        <ele>388</ele>
        <time>2013-01-30T15:28:58Z</time>
      </trkpt>
      <trkpt lat="43.54283" lon="6.59816">
        <ele>387.6</ele>
        <time>2013-01-30T15:29:03Z</time>
      </trkpt>
      <trkpt lat="43.54277" lon="6.59807">
        <ele>386.8</ele>
        <time>2013-01-30T15:29:12Z</time>
      </trkpt>
      <trkpt lat="43.54273" lon="6.59796">
        <ele>386.7</ele>
        <time>2013-01-30T15:29:18Z</time>
      </trkpt>
      <trkpt lat="43.54273" lon="6.59795">
        <ele>386.3</ele>
        <time>2013-01-30T15:29:19Z</time>
      </trkpt>
      <trkpt lat="43.54262" lon="6.59778">
        <ele>383.4</ele>
        <time>2013-01-30T15:29:34Z</time>
      </trkpt>
      <trkpt lat="43.54256" lon="6.59772">
        <ele>383</ele>
        <time>2013-01-30T15:29:41Z</time>
      </trkpt>
      <trkpt lat="43.5425" lon="6.59765">
        <ele>381.7</ele>
        <time>2013-01-30T15:29:48Z</time>
      </trkpt>
      <trkpt lat="43.54243" lon="6.59758">
        <ele>381.1</ele>
        <time>2013-01-30T15:29:54Z</time>
      </trkpt>
      <trkpt lat="43.54236" lon="6.5975">
        <ele>379.8</ele>
        <time>2013-01-30T15:30:04Z</time>
      </trkpt>
      <trkpt lat="43.5423" lon="6.59743">
        <ele>378.9</ele>
        <time>2013-01-30T15:30:14Z</time>
      </trkpt>
      <trkpt lat="43.54224" lon="6.59735">
        <ele>378.7</ele>
        <time>2013-01-30T15:30:22Z</time>
      </trkpt>
      <trkpt lat="43.54223" lon="6.59734">
        <ele>378.6</ele>
        <time>2013-01-30T15:30:23Z</time>
      </trkpt>
      <trkpt lat="43.5421" lon="6.59721">
        <ele>377.3</ele>
        <time>2013-01-30T15:30:39Z</time>
      </trkpt>
      <trkpt lat="43.54206" lon="6.59711">
        <ele>376</ele>
        <time>2013-01-30T15:30:48Z</time>
      </trkpt>
      <trkpt lat="43.54199" lon="6.59702">
        <ele>375.3</ele>
        <time>2013-01-30T15:31:06Z</time>
      </trkpt>
      <trkpt lat="43.54193" lon="6.59694">
        <ele>373.8</ele>
        <time>2013-01-30T15:31:19Z</time>
      </trkpt>
      <trkpt lat="43.5419" lon="6.59683">
        <ele>372.8</ele>
        <time>2013-01-30T15:31:31Z</time>
      </trkpt>
      <trkpt lat="43.54189" lon="6.59681">
        <ele>372.6</ele>
        <time>2013-01-30T15:31:32Z</time>
      </trkpt>
      <trkpt lat="43.54179" lon="6.59664">
        <ele>371.4</ele>
        <time>2013-01-30T15:31:48Z</time>
      </trkpt>
      <trkpt lat="43.54174" lon="6.59655">
        <ele>370.8</ele>
        <time>2013-01-30T15:31:55Z</time>
      </trkpt>
      <trkpt lat="43.54169" lon="6.59646">
        <ele>370.2</ele>
        <time>2013-01-30T15:32:03Z</time>
      </trkpt>
      <trkpt lat="43.54163" lon="6.59639">
        <ele>369.2</ele>
        <time>2013-01-30T15:32:09Z</time>
      </trkpt>
      <trkpt lat="43.54156" lon="6.59633">
        <ele>369.6</ele>
        <time>2013-01-30T15:32:17Z</time>
      </trkpt>
      <trkpt lat="43.54149" lon="6.59628">
        <ele>369.4</ele>
        <time>2013-01-30T15:32:25Z</time>
      </trkpt>
      <trkpt lat="43.5414" lon="6.59624">
        <ele>368.4</ele>
        <time>2013-01-30T15:32:32Z</time>
      </trkpt>
      <trkpt lat="43.54139" lon="6.59624">
        <ele>368.3</ele>
        <time>2013-01-30T15:32:33Z</time>
      </trkpt>
      <trkpt lat="43.54123" lon="6.5962">
        <ele>366.9</ele>
        <time>2013-01-30T15:32:50Z</time>
      </trkpt>
      <trkpt lat="43.54118" lon="6.5961">
        <ele>365.7</ele>
        <time>2013-01-30T15:32:57Z</time>
      </trkpt>
      <trkpt lat="43.54124" lon="6.59603">
        <ele>364.3</ele>
        <time>2013-01-30T15:33:09Z</time>
      </trkpt>
      <trkpt lat="43.54132" lon="6.596">
        <ele>362.9</ele>
        <time>2013-01-30T15:33:19Z</time>
      </trkpt>
      <trkpt lat="43.5414" lon="6.59596">
        <ele>361.5</ele>
        <time>2013-01-30T15:33:26Z</time>
      </trkpt>
      <trkpt lat="43.54148" lon="6.59592">
        <ele>360.9</ele>
        <time>2013-01-30T15:33:33Z</time>
      </trkpt>
      <trkpt lat="43.54148" lon="6.59591">
        <ele>360.7</ele>
        <time>2013-01-30T15:33:34Z</time>
      </trkpt>
      <trkpt lat="43.54165" lon="6.59591">
        <ele>359.4</ele>
        <time>2013-01-30T15:33:48Z</time>
      </trkpt>
      <trkpt lat="43.54173" lon="6.59593">
        <ele>358.9</ele>
        <time>2013-01-30T15:33:55Z</time>
      </trkpt>
      <trkpt lat="43.54182" lon="6.59592">
        <ele>358.2</ele>
        <time>2013-01-30T15:34:03Z</time>
      </trkpt>
      <trkpt lat="43.54178" lon="6.5958">
        <ele>356.7</ele>
        <time>2013-01-30T15:34:13Z</time>
      </trkpt>
      <trkpt lat="43.54173" lon="6.59571">
        <ele>355.3</ele>
        <time>2013-01-30T15:34:22Z</time>
      </trkpt>
      <trkpt lat="43.54167" lon="6.59563">
        <ele>354.7</ele>
        <time>2013-01-30T15:34:30Z</time>
      </trkpt>
      <trkpt lat="43.5416" lon="6.59554">
        <ele>353.8</ele>
        <time>2013-01-30T15:34:38Z</time>
      </trkpt>
      <trkpt lat="43.5416" lon="6.59553">
        <ele>353.6</ele>
        <time>2013-01-30T15:34:39Z</time>
      </trkpt>
      <trkpt lat="43.54145" lon="6.59544">
        <ele>352</ele>
        <time>2013-01-30T15:34:55Z</time>
      </trkpt>
      <trkpt lat="43.54137" lon="6.59542">
        <ele>351.4</ele>
        <time>2013-01-30T15:35:02Z</time>
      </trkpt>
      <trkpt lat="43.54129" lon="6.59541">
        <ele>350.5</ele>
        <time>2013-01-30T15:35:08Z</time>
      </trkpt>
      <trkpt lat="43.54121" lon="6.59539">
        <ele>349.1</ele>
        <time>2013-01-30T15:35:15Z</time>
      </trkpt>
      <trkpt lat="43.5412" lon="6.59528">
        <ele>348</ele>
        <time>2013-01-30T15:35:22Z</time>
      </trkpt>
      <trkpt lat="43.54126" lon="6.59519">
        <ele>346.5</ele>
        <time>2013-01-30T15:35:32Z</time>
      </trkpt>
      <trkpt lat="43.54133" lon="6.59512">
        <ele>345</ele>
        <time>2013-01-30T15:35:40Z</time>
      </trkpt>
      <trkpt lat="43.54134" lon="6.59511">
        <ele>345</ele>
        <time>2013-01-30T15:35:41Z</time>
      </trkpt>
      <trkpt lat="43.54146" lon="6.59499">
        <ele>342.4</ele>
        <time>2013-01-30T15:35:55Z</time>
      </trkpt>
      <trkpt lat="43.54152" lon="6.59491">
        <ele>341.4</ele>
        <time>2013-01-30T15:36:03Z</time>
      </trkpt>
      <trkpt lat="43.54157" lon="6.59483">
        <ele>340.4</ele>
        <time>2013-01-30T15:36:11Z</time>
      </trkpt>
      <trkpt lat="43.54164" lon="6.59475">
        <ele>339.7</ele>
        <time>2013-01-30T15:36:19Z</time>
      </trkpt>
      <trkpt lat="43.54172" lon="6.59474">
        <ele>338.4</ele>
        <time>2013-01-30T15:36:27Z</time>
      </trkpt>
      <trkpt lat="43.54181" lon="6.59474">
        <ele>337.5</ele>
        <time>2013-01-30T15:36:35Z</time>
      </trkpt>
      <trkpt lat="43.54188" lon="6.59466">
        <ele>336.1</ele>
        <time>2013-01-30T15:36:43Z</time>
      </trkpt>
      <trkpt lat="43.54188" lon="6.59464">
        <ele>336.2</ele>
        <time>2013-01-30T15:36:44Z</time>
      </trkpt>
      <trkpt lat="43.54177" lon="6.59447">
        <ele>333.4</ele>
        <time>2013-01-30T15:37:01Z</time>
      </trkpt>
      <trkpt lat="43.54171" lon="6.5944">
        <ele>332.6</ele>
        <time>2013-01-30T15:37:08Z</time>
      </trkpt>
      <trkpt lat="43.54162" lon="6.59438">
        <ele>332.2</ele>
        <time>2013-01-30T15:37:16Z</time>
      </trkpt>
      <trkpt lat="43.54155" lon="6.59443">
        <ele>331.1</ele>
        <time>2013-01-30T15:37:24Z</time>
      </trkpt>
      <trkpt lat="43.54146" lon="6.59445">
        <ele>330.2</ele>
        <time>2013-01-30T15:37:31Z</time>
      </trkpt>
      <trkpt lat="43.54138" lon="6.59444">
        <ele>329.6</ele>
        <time>2013-01-30T15:37:38Z</time>
      </trkpt>
      <trkpt lat="43.54133" lon="6.59435">
        <ele>328.3</ele>
        <time>2013-01-30T15:37:45Z</time>
      </trkpt>
      <trkpt lat="43.54133" lon="6.59433">
        <ele>328.2</ele>
        <time>2013-01-30T15:37:46Z</time>
      </trkpt>
      <trkpt lat="43.54125" lon="6.59414">
        <ele>326.6</ele>
        <time>2013-01-30T15:37:59Z</time>
      </trkpt>
      <trkpt lat="43.54118" lon="6.59407">
        <ele>325.8</ele>
        <time>2013-01-30T15:38:07Z</time>
      </trkpt>
      <trkpt lat="43.54111" lon="6.59402">
        <ele>325</ele>
        <time>2013-01-30T15:38:14Z</time>
      </trkpt>
      <trkpt lat="43.54103" lon="6.59397">
        <ele>323.9</ele>
        <time>2013-01-30T15:38:21Z</time>
      </trkpt>
      <trkpt lat="43.54095" lon="6.59394">
        <ele>322.5</ele>
        <time>2013-01-30T15:38:28Z</time>
      </trkpt>
      <trkpt lat="43.5409" lon="6.59385">
        <ele>321</ele>
        <time>2013-01-30T15:38:34Z</time>
      </trkpt>
      <trkpt lat="43.54095" lon="6.59376">
        <ele>319.1</ele>
        <time>2013-01-30T15:38:44Z</time>
      </trkpt>
      <trkpt lat="43.54103" lon="6.59375">
        <ele>318.6</ele>
        <time>2013-01-30T15:38:51Z</time>
      </trkpt>
      <trkpt lat="43.54104" lon="6.59375">
        <ele>318.5</ele>
        <time>2013-01-30T15:38:52Z</time>
      </trkpt>
      <trkpt lat="43.54121" lon="6.59375">
        <ele>317.1</ele>
        <time>2013-01-30T15:39:06Z</time>
      </trkpt>
      <trkpt lat="43.54129" lon="6.5938">
        <ele>316.2</ele>
        <time>2013-01-30T15:39:14Z</time>
      </trkpt>
      <trkpt lat="43.54132" lon="6.59369">
        <ele>314.4</ele>
        <time>2013-01-30T15:39:27Z</time>
      </trkpt>
      <trkpt lat="43.54125" lon="6.59366">
        <ele>313.6</ele>
        <time>2013-01-30T15:39:34Z</time>
      </trkpt>
      <trkpt lat="43.54117" lon="6.59361">
        <ele>312.9</ele>
        <time>2013-01-30T15:39:41Z</time>
      </trkpt>
      <trkpt lat="43.54111" lon="6.59354">
        <ele>312.4</ele>
        <time>2013-01-30T15:39:48Z</time>
      </trkpt>
      <trkpt lat="43.54105" lon="6.59346">
        <ele>310.7</ele>
        <time>2013-01-30T15:39:56Z</time>
      </trkpt>
      <trkpt lat="43.54104" lon="6.59345">
        <ele>310.5</ele>
        <time>2013-01-30T15:39:57Z</time>
      </trkpt>
      <trkpt lat="43.5409" lon="6.59335">
        <ele>308.9</ele>
        <time>2013-01-30T15:40:09Z</time>
      </trkpt>
      <trkpt lat="43.54083" lon="6.59331">
        <ele>307.7</ele>
        <time>2013-01-30T15:40:17Z</time>
      </trkpt>
      <trkpt lat="43.54074" lon="6.59329">
        <ele>306.9</ele>
        <time>2013-01-30T15:40:27Z</time>
      </trkpt>
      <trkpt lat="43.54067" lon="6.59322">
        <ele>305.6</ele>
        <time>2013-01-30T15:40:35Z</time>
      </trkpt>
      <trkpt lat="43.54061" lon="6.59314">
        <ele>304.7</ele>
        <time>2013-01-30T15:40:44Z</time>
      </trkpt>
      <trkpt lat="43.54053" lon="6.59307">
        <ele>303.9</ele>
        <time>2013-01-30T15:40:56Z</time>
      </trkpt>
      <trkpt lat="43.54045" lon="6.59302">
        <ele>304.3</ele>
        <time>2013-01-30T15:41:09Z</time>
      </trkpt>
      <trkpt lat="43.54045" lon="6.59301">
        <ele>304</ele>
        <time>2013-01-30T15:41:10Z</time>
      </trkpt>
      <trkpt lat="43.54034" lon="6.59287">
        <ele>302.2</ele>
        <time>2013-01-30T15:41:24Z</time>
      </trkpt>
      <trkpt lat="43.54028" lon="6.59277">
        <ele>302.2</ele>
        <time>2013-01-30T15:41:30Z</time>
      </trkpt>
      <trkpt lat="43.54023" lon="6.59269">
        <ele>301.6</ele>
        <time>2013-01-30T15:41:38Z</time>
      </trkpt>
      <trkpt lat="43.54016" lon="6.59262">
        <ele>301.1</ele>
        <time>2013-01-30T15:41:49Z</time>
      </trkpt>
      <trkpt lat="43.54007" lon="6.59262">
        <ele>300.8</ele>
        <time>2013-01-30T15:41:57Z</time>
      </trkpt>
      <trkpt lat="43.54" lon="6.59257">
        <ele>300.3</ele>
        <time>2013-01-30T15:42:04Z</time>
      </trkpt>
      <trkpt lat="43.53992" lon="6.59251">
        <ele>299.8</ele>
        <time>2013-01-30T15:42:12Z</time>
      </trkpt>
      <trkpt lat="43.53991" lon="6.59249">
        <ele>299.6</ele>
        <time>2013-01-30T15:42:13Z</time>
      </trkpt>
      <trkpt lat="43.53977" lon="6.59241">
        <ele>299.1</ele>
        <time>2013-01-30T15:42:30Z</time>
      </trkpt>
      <trkpt lat="43.53968" lon="6.59236">
        <ele>299</ele>
        <time>2013-01-30T15:42:39Z</time>
      </trkpt>
      <trkpt lat="43.53961" lon="6.5923">
        <ele>298.8</ele>
        <time>2013-01-30T15:42:50Z</time>
      </trkpt>
      <trkpt lat="43.53953" lon="6.59226">
        <ele>298.4</ele>
        <time>2013-01-30T15:43:00Z</time>
      </trkpt>
      <trkpt lat="43.53945" lon="6.59221">
        <ele>298.5</ele>
        <time>2013-01-30T15:43:07Z</time>
      </trkpt>
      <trkpt lat="43.53937" lon="6.59218">
        <ele>297.7</ele>
        <time>2013-01-30T15:43:15Z</time>
      </trkpt>
      <trkpt lat="43.53936" lon="6.59218">
        <ele>297.8</ele>
        <time>2013-01-30T15:43:16Z</time>
      </trkpt>
      <trkpt lat="43.5392" lon="6.59217">
        <ele>296.4</ele>
        <time>2013-01-30T15:43:29Z</time>
      </trkpt>
      <trkpt lat="43.53913" lon="6.59216">
        <ele>295.8</ele>
        <time>2013-01-30T15:43:35Z</time>
      </trkpt>
      <trkpt lat="43.53904" lon="6.59216">
        <ele>295.1</ele>
        <time>2013-01-30T15:43:42Z</time>
      </trkpt>
      <trkpt lat="43.53896" lon="6.59217">
        <ele>294.3</ele>
        <time>2013-01-30T15:43:52Z</time>
      </trkpt>
      <trkpt lat="43.53888" lon="6.59215">
        <ele>293.1</ele>
        <time>2013-01-30T15:45:48Z</time>
      </trkpt>
      <trkpt lat="43.53887" lon="6.59214">
        <ele>293.2</ele>
        <time>2013-01-30T15:45:49Z</time>
      </trkpt>
      <trkpt lat="43.5387" lon="6.59213">
        <ele>291.3</ele>
        <time>2013-01-30T15:46:22Z</time>
      </trkpt>
      <trkpt lat="43.53861" lon="6.59213">
        <ele>291.3</ele>
        <time>2013-01-30T15:46:32Z</time>
      </trkpt>
      <trkpt lat="43.53853" lon="6.5921">
        <ele>290.5</ele>
        <time>2013-01-30T15:46:40Z</time>
      </trkpt>
      <trkpt lat="43.53846" lon="6.59209">
        <ele>289.5</ele>
        <time>2013-01-30T15:46:48Z</time>
      </trkpt>
      <trkpt lat="43.53837" lon="6.59208">
        <ele>289</ele>
        <time>2013-01-30T15:46:56Z</time>
      </trkpt>
      <trkpt lat="43.53836" lon="6.59208">
        <ele>288.9</ele>
        <time>2013-01-30T15:46:57Z</time>
      </trkpt>
      <trkpt lat="43.53821" lon="6.59202">
        <ele>288.1</ele>
        <time>2013-01-30T15:47:11Z</time>
      </trkpt>
      <trkpt lat="43.53813" lon="6.59202">
        <ele>287</ele>
        <time>2013-01-30T15:47:18Z</time>
      </trkpt>
      <trkpt lat="43.53804" lon="6.592">
        <ele>285.8</ele>
        <time>2013-01-30T15:47:27Z</time>
      </trkpt>
      <trkpt lat="43.53796" lon="6.592">
        <ele>285.8</ele>
        <time>2013-01-30T15:47:34Z</time>
      </trkpt>
      <trkpt lat="43.53787" lon="6.592">
        <ele>285.2</ele>
        <time>2013-01-30T15:47:43Z</time>
      </trkpt>
      <trkpt lat="43.5378" lon="6.59197">
        <ele>283.9</ele>
        <time>2013-01-30T15:47:51Z</time>
      </trkpt>
      <trkpt lat="43.53772" lon="6.59196">
        <ele>282.7</ele>
        <time>2013-01-30T15:47:58Z</time>
      </trkpt>
      <trkpt lat="43.53771" lon="6.59197">
        <ele>282.5</ele>
        <time>2013-01-30T15:47:59Z</time>
      </trkpt>
      <trkpt lat="43.53755" lon="6.592">
        <ele>281.1</ele>
        <time>2013-01-30T15:48:44Z</time>
      </trkpt>
      <trkpt lat="43.53748" lon="6.59204">
        <ele>279.8</ele>
        <time>2013-01-30T15:48:54Z</time>
      </trkpt>
      <trkpt lat="43.5374" lon="6.59206">
        <ele>279.9</ele>
        <time>2013-01-30T15:49:02Z</time>
      </trkpt>
      <trkpt lat="43.53739" lon="6.59207">
        <ele>279.8</ele>
        <time>2013-01-30T15:49:03Z</time>
      </trkpt>
      <trkpt lat="43.53723" lon="6.59208">
        <ele>279.6</ele>
        <time>2013-01-30T15:49:19Z</time>
      </trkpt>
      <trkpt lat="43.53717" lon="6.59216">
        <ele>280</ele>
        <time>2013-01-30T15:49:28Z</time>
      </trkpt>
      <trkpt lat="43.5371" lon="6.59225">
        <ele>281.5</ele>
        <time>2013-01-30T15:49:40Z</time>
      </trkpt>
      <trkpt lat="43.53706" lon="6.59235">
        <ele>282.5</ele>
        <time>2013-01-30T15:49:50Z</time>
      </trkpt>
      <trkpt lat="43.537" lon="6.59242">
        <ele>283</ele>
        <time>2013-01-30T15:49:58Z</time>
      </trkpt>
      <trkpt lat="43.53694" lon="6.5925">
        <ele>283.9</ele>
        <time>2013-01-30T15:50:06Z</time>
      </trkpt>
      <trkpt lat="43.53693" lon="6.5925">
        <ele>283.8</ele>
        <time>2013-01-30T15:50:07Z</time>
      </trkpt>
      <trkpt lat="43.53679" lon="6.59262">
        <ele>284.5</ele>
        <time>2013-01-30T15:50:25Z</time>
      </trkpt>
      <trkpt lat="43.53671" lon="6.59264">
        <ele>284.4</ele>
        <time>2013-01-30T15:50:34Z</time>
      </trkpt>
      <trkpt lat="43.53664" lon="6.59267">
        <ele>283.9</ele>
        <time>2013-01-30T15:50:43Z</time>
      </trkpt>
      <trkpt lat="43.53656" lon="6.59273">
        <ele>284.1</ele>
        <time>2013-01-30T15:50:49Z</time>
      </trkpt>
      <trkpt lat="43.53649" lon="6.5928">
        <ele>284.3</ele>
        <time>2013-01-30T15:50:58Z</time>
      </trkpt>
      <trkpt lat="43.53641" lon="6.59284">
        <ele>285.1</ele>
        <time>2013-01-30T15:51:06Z</time>
      </trkpt>
      <trkpt lat="43.53634" lon="6.59292">
        <ele>285.6</ele>
        <time>2013-01-30T15:51:14Z</time>
      </trkpt>
      <trkpt lat="43.53633" lon="6.59292">
        <ele>285.5</ele>
        <time>2013-01-30T15:51:15Z</time>
      </trkpt>
      <trkpt lat="43.53619" lon="6.59293">
        <ele>284.2</ele>
        <time>2013-01-30T15:51:28Z</time>
      </trkpt>
      <trkpt lat="43.53614" lon="6.59285">
        <ele>283.4</ele>
        <time>2013-01-30T15:51:32Z</time>
      </trkpt>
      <trkpt lat="43.5361" lon="6.59277">
        <ele>282.8</ele>
        <time>2013-01-30T15:51:36Z</time>
      </trkpt>
      <trkpt lat="43.53606" lon="6.59268">
        <ele>282.9</ele>
        <time>2013-01-30T15:51:40Z</time>
      </trkpt>
      <trkpt lat="43.53602" lon="6.59259">
        <ele>282.9</ele>
        <time>2013-01-30T15:51:43Z</time>
      </trkpt>
      <trkpt lat="43.53594" lon="6.59253">
        <ele>281.2</ele>
        <time>2013-01-30T15:52:09Z</time>
      </trkpt>
      <trkpt lat="43.53586" lon="6.59247">
        <ele>279.8</ele>
        <time>2013-01-30T15:52:20Z</time>
      </trkpt>
      <trkpt lat="43.53586" lon="6.59246">
        <ele>279.7</ele>
        <time>2013-01-30T15:52:21Z</time>
      </trkpt>
      <trkpt lat="43.53575" lon="6.59232">
        <ele>277.9</ele>
        <time>2013-01-30T15:52:36Z</time>
      </trkpt>
      <trkpt lat="43.53568" lon="6.59225">
        <ele>276.4</ele>
        <time>2013-01-30T15:52:43Z</time>
      </trkpt>
      <trkpt lat="43.53562" lon="6.59217">
        <ele>275.2</ele>
        <time>2013-01-30T15:52:50Z</time>
      </trkpt>
      <trkpt lat="43.53568" lon="6.59209">
        <ele>274</ele>
        <time>2013-01-30T15:52:58Z</time>
      </trkpt>
      <trkpt lat="43.53576" lon="6.59206">
        <ele>272.4</ele>
        <time>2013-01-30T15:53:08Z</time>
      </trkpt>
      <trkpt lat="43.53585" lon="6.59206">
        <ele>271.4</ele>
        <time>2013-01-30T15:53:16Z</time>
      </trkpt>
      <trkpt lat="43.53593" lon="6.59204">
        <ele>270.1</ele>
        <time>2013-01-30T15:53:24Z</time>
      </trkpt>
      <trkpt lat="43.53594" lon="6.59203">
        <ele>270.1</ele>
        <time>2013-01-30T15:53:25Z</time>
      </trkpt>
      <trkpt lat="43.53606" lon="6.59191">
        <ele>267.9</ele>
        <time>2013-01-30T15:53:40Z</time>
      </trkpt>
      <trkpt lat="43.53614" lon="6.59187">
        <ele>266.9</ele>
        <time>2013-01-30T15:53:47Z</time>
      </trkpt>
      <trkpt lat="43.53621" lon="6.59179">
        <ele>265.5</ele>
        <time>2013-01-30T15:53:57Z</time>
      </trkpt>
      <trkpt lat="43.53625" lon="6.5917">
        <ele>264.8</ele>
        <time>2013-01-30T15:54:04Z</time>
      </trkpt>
      <trkpt lat="43.53629" lon="6.59159">
        <ele>263.5</ele>
        <time>2013-01-30T15:54:12Z</time>
      </trkpt>
      <trkpt lat="43.5363" lon="6.59148">
        <ele>261.7</ele>
        <time>2013-01-30T15:54:20Z</time>
      </trkpt>
      <trkpt lat="43.53625" lon="6.59139">
        <ele>260.1</ele>
        <time>2013-01-30T15:54:28Z</time>
      </trkpt>
      <trkpt lat="43.53624" lon="6.59139">
        <ele>260.1</ele>
        <time>2013-01-30T15:54:29Z</time>
      </trkpt>
      <trkpt lat="43.53609" lon="6.59132">
        <ele>257.3</ele>
        <time>2013-01-30T15:54:45Z</time>
      </trkpt>
      <trkpt lat="43.53603" lon="6.59126">
        <ele>256.4</ele>
        <time>2013-01-30T15:54:52Z</time>
      </trkpt>
      <trkpt lat="43.53597" lon="6.59117">
        <ele>254.9</ele>
        <time>2013-01-30T15:54:59Z</time>
      </trkpt>
      <trkpt lat="43.5359" lon="6.59113">
        <ele>253.5</ele>
        <time>2013-01-30T15:55:07Z</time>
      </trkpt>
      <trkpt lat="43.53583" lon="6.59108">
        <ele>251.5</ele>
        <time>2013-01-30T15:55:15Z</time>
      </trkpt>
      <trkpt lat="43.53575" lon="6.59103">
        <ele>250.5</ele>
        <time>2013-01-30T15:55:22Z</time>
      </trkpt>
      <trkpt lat="43.53569" lon="6.59096">
        <ele>250.2</ele>
        <time>2013-01-30T15:55:29Z</time>
      </trkpt>
      <trkpt lat="43.53568" lon="6.59095">
        <ele>250</ele>
        <time>2013-01-30T15:55:30Z</time>
      </trkpt>
      <trkpt lat="43.53555" lon="6.59084">
        <ele>247</ele>
        <time>2013-01-30T15:55:45Z</time>
      </trkpt>
      <trkpt lat="43.53549" lon="6.59078">
        <ele>246</ele>
        <time>2013-01-30T15:55:52Z</time>
      </trkpt>
      <trkpt lat="43.53541" lon="6.59074">
        <ele>243.5</ele>
        <time>2013-01-30T15:56:00Z</time>
      </trkpt>
      <trkpt lat="43.53533" lon="6.59069">
        <ele>241.9</ele>
        <time>2013-01-30T15:56:07Z</time>
      </trkpt>
      <trkpt lat="43.53526" lon="6.59064">
        <ele>241.2</ele>
        <time>2013-01-30T15:56:13Z</time>
      </trkpt>
      <trkpt lat="43.53518" lon="6.59058">
        <ele>239.8</ele>
        <time>2013-01-30T15:56:20Z</time>
      </trkpt>
      <trkpt lat="43.5351" lon="6.59055">
        <ele>237.7</ele>
        <time>2013-01-30T15:56:29Z</time>
      </trkpt>
      <trkpt lat="43.53503" lon="6.5905">
        <ele>236.4</ele>
        <time>2013-01-30T15:56:37Z</time>
      </trkpt>
      <trkpt lat="43.53502" lon="6.59049">
        <ele>236.1</ele>
        <time>2013-01-30T15:56:38Z</time>
      </trkpt>
      <trkpt lat="43.53488" lon="6.59038">
        <ele>233.1</ele>
        <time>2013-01-30T15:56:57Z</time>
      </trkpt>
      <trkpt lat="43.53482" lon="6.5903">
        <ele>232.8</ele>
        <time>2013-01-30T15:57:04Z</time>
      </trkpt>
      <trkpt lat="43.53474" lon="6.59025">
        <ele>232.9</ele>
        <time>2013-01-30T15:57:10Z</time>
      </trkpt>
      <trkpt lat="43.53467" lon="6.59018">
        <ele>233</ele>
        <time>2013-01-30T15:57:16Z</time>
      </trkpt>
      <trkpt lat="43.5346" lon="6.5901">
        <ele>232.2</ele>
        <time>2013-01-30T15:57:24Z</time>
      </trkpt>
      <trkpt lat="43.53453" lon="6.59003">
        <ele>230.3</ele>
        <time>2013-01-30T15:57:34Z</time>
      </trkpt>
      <trkpt lat="43.53447" lon="6.58998">
        <ele>229.3</ele>
        <time>2013-01-30T15:57:41Z</time>
      </trkpt>
      <trkpt lat="43.53446" lon="6.58997">
        <ele>229.1</ele>
        <time>2013-01-30T15:57:42Z</time>
      </trkpt>
      <trkpt lat="43.53432" lon="6.58989">
        <ele>227.1</ele>
        <time>2013-01-30T15:57:55Z</time>
      </trkpt>
      <trkpt lat="43.53424" lon="6.58984">
        <ele>225.9</ele>
        <time>2013-01-30T15:58:01Z</time>
      </trkpt>
      <trkpt lat="43.53417" lon="6.58979">
        <ele>224.8</ele>
        <time>2013-01-30T15:58:09Z</time>
      </trkpt>
      <trkpt lat="43.5341" lon="6.58974">
        <ele>224.1</ele>
        <time>2013-01-30T15:58:15Z</time>
      </trkpt>
      <trkpt lat="43.53403" lon="6.58968">
        <ele>223.1</ele>
        <time>2013-01-30T15:58:22Z</time>
      </trkpt>
      <trkpt lat="43.53395" lon="6.58961">
        <ele>222.1</ele>
        <time>2013-01-30T15:58:33Z</time>
      </trkpt>
      <trkpt lat="43.53389" lon="6.58953">
        <ele>221.4</ele>
        <time>2013-01-30T15:58:39Z</time>
      </trkpt>
      <trkpt lat="43.53382" lon="6.58947">
        <ele>220.3</ele>
        <time>2013-01-30T15:58:48Z</time>
      </trkpt>
      <trkpt lat="43.5338" lon="6.58946">
        <ele>220.4</ele>
        <time>2013-01-30T15:58:49Z</time>
      </trkpt>
      <trkpt lat="43.53366" lon="6.5894">
        <ele>218.3</ele>
        <time>2013-01-30T15:59:00Z</time>
      </trkpt>
      <trkpt lat="43.53358" lon="6.58937">
        <ele>216.6</ele>
        <time>2013-01-30T15:59:08Z</time>
      </trkpt>
      <trkpt lat="43.53351" lon="6.58931">
        <ele>215.9</ele>
        <time>2013-01-30T15:59:21Z</time>
      </trkpt>
      <trkpt lat="43.53345" lon="6.58924">
        <ele>215</ele>
        <time>2013-01-30T15:59:27Z</time>
      </trkpt>
      <trkpt lat="43.53337" lon="6.58917">
        <ele>214.9</ele>
        <time>2013-01-30T15:59:34Z</time>
      </trkpt>
      <trkpt lat="43.53331" lon="6.58911">
        <ele>213.5</ele>
        <time>2013-01-30T15:59:41Z</time>
      </trkpt>
      <trkpt lat="43.53323" lon="6.58905">
        <ele>212.4</ele>
        <time>2013-01-30T15:59:47Z</time>
      </trkpt>
      <trkpt lat="43.53315" lon="6.589">
        <ele>212.2</ele>
        <time>2013-01-30T15:59:54Z</time>
      </trkpt>
      <trkpt lat="43.53314" lon="6.589">
        <ele>212.2</ele>
        <time>2013-01-30T15:59:55Z</time>
      </trkpt>
      <trkpt lat="43.53299" lon="6.58892">
        <ele>210.4</ele>
        <time>2013-01-30T16:00:09Z</time>
      </trkpt>
      <trkpt lat="43.53292" lon="6.58888">
        <ele>209.5</ele>
        <time>2013-01-30T16:00:15Z</time>
      </trkpt>
      <trkpt lat="43.53283" lon="6.58886">
        <ele>208.3</ele>
        <time>2013-01-30T16:00:22Z</time>
      </trkpt>
      <trkpt lat="43.53276" lon="6.58883">
        <ele>208</ele>
        <time>2013-01-30T16:00:28Z</time>
      </trkpt>
      <trkpt lat="43.53269" lon="6.58877">
        <ele>207</ele>
        <time>2013-01-30T16:00:35Z</time>
      </trkpt>
      <trkpt lat="43.53262" lon="6.58869">
        <ele>206.5</ele>
        <time>2013-01-30T16:00:44Z</time>
      </trkpt>
      <trkpt lat="43.53255" lon="6.58865">
        <ele>205.8</ele>
        <time>2013-01-30T16:00:52Z</time>
      </trkpt>
      <trkpt lat="43.53247" lon="6.58861">
        <ele>205.1</ele>
        <time>2013-01-30T16:00:59Z</time>
      </trkpt>
      <trkpt lat="43.53245" lon="6.58861">
        <ele>205.1</ele>
        <time>2013-01-30T16:01:00Z</time>
      </trkpt>
      <trkpt lat="43.53232" lon="6.58851">
        <ele>203.6</ele>
        <time>2013-01-30T16:01:11Z</time>
      </trkpt>
      <trkpt lat="43.53224" lon="6.58845">
        <ele>202.8</ele>
        <time>2013-01-30T16:01:19Z</time>
      </trkpt>
      <trkpt lat="43.53217" lon="6.5884">
        <ele>202.4</ele>
        <time>2013-01-30T16:01:25Z</time>
      </trkpt>
      <trkpt lat="43.5321" lon="6.58833">
        <ele>202</ele>
        <time>2013-01-30T16:01:31Z</time>
      </trkpt>
      <trkpt lat="43.53203" lon="6.58828">
        <ele>201.3</ele>
        <time>2013-01-30T16:01:37Z</time>
      </trkpt>
      <trkpt lat="43.53196" lon="6.58822">
        <ele>201.1</ele>
        <time>2013-01-30T16:01:43Z</time>
      </trkpt>
      <trkpt lat="43.53188" lon="6.58818">
        <ele>200.2</ele>
        <time>2013-01-30T16:01:51Z</time>
      </trkpt>
      <trkpt lat="43.53181" lon="6.58813">
        <ele>199.3</ele>
        <time>2013-01-30T16:01:57Z</time>
      </trkpt>
      <trkpt lat="43.53174" lon="6.58809">
        <ele>198.6</ele>
        <time>2013-01-30T16:02:03Z</time>
      </trkpt>
      <trkpt lat="43.53172" lon="6.58807">
        <ele>198.3</ele>
        <time>2013-01-30T16:02:04Z</time>
      </trkpt>
      <trkpt lat="43.5316" lon="6.58796">
        <ele>197</ele>
        <time>2013-01-30T16:02:16Z</time>
      </trkpt>
      <trkpt lat="43.53152" lon="6.5879">
        <ele>196.5</ele>
        <time>2013-01-30T16:02:22Z</time>
      </trkpt>
      <trkpt lat="43.53147" lon="6.58783">
        <ele>195.6</ele>
        <time>2013-01-30T16:02:28Z</time>
      </trkpt>
      <trkpt lat="43.53141" lon="6.58774">
        <ele>195.1</ele>
        <time>2013-01-30T16:02:34Z</time>
      </trkpt>
      <trkpt lat="43.53134" lon="6.58767">
        <ele>193.8</ele>
        <time>2013-01-30T16:02:41Z</time>
      </trkpt>
      <trkpt lat="43.53127" lon="6.58761">
        <ele>192.8</ele>
        <time>2013-01-30T16:02:48Z</time>
      </trkpt>
      <trkpt lat="43.5312" lon="6.58756">
        <ele>192.3</ele>
        <time>2013-01-30T16:02:55Z</time>
      </trkpt>
      <trkpt lat="43.53112" lon="6.58751">
        <ele>190.9</ele>
        <time>2013-01-30T16:03:02Z</time>
      </trkpt>
      <trkpt lat="43.53104" lon="6.58748">
        <ele>189.5</ele>
        <time>2013-01-30T16:03:10Z</time>
      </trkpt>
      <trkpt lat="43.53103" lon="6.58747">
        <ele>189.3</ele>
        <time>2013-01-30T16:03:11Z</time>
      </trkpt>
      <trkpt lat="43.5309" lon="6.58737">
        <ele>187.7</ele>
        <time>2013-01-30T16:03:25Z</time>
      </trkpt>
      <trkpt lat="43.53084" lon="6.58729">
        <ele>186.8</ele>
        <time>2013-01-30T16:03:33Z</time>
      </trkpt>
      <trkpt lat="43.53078" lon="6.58719">
        <ele>185.8</ele>
        <time>2013-01-30T16:03:40Z</time>
      </trkpt>
      <trkpt lat="43.53073" lon="6.58711">
        <ele>184.8</ele>
        <time>2013-01-30T16:03:48Z</time>
      </trkpt>
      <trkpt lat="43.53066" lon="6.58703">
        <ele>183.8</ele>
        <time>2013-01-30T16:03:55Z</time>
      </trkpt>
      <trkpt lat="43.5306" lon="6.58693">
        <ele>182.7</ele>
        <time>2013-01-30T16:04:02Z</time>
      </trkpt>
      <trkpt lat="43.53053" lon="6.58685">
        <ele>182.1</ele>
        <time>2013-01-30T16:04:10Z</time>
      </trkpt>
      <trkpt lat="43.53048" lon="6.58676">
        <ele>181</ele>
        <time>2013-01-30T16:04:16Z</time>
      </trkpt>
      <trkpt lat="43.53047" lon="6.58674">
        <ele>181</ele>
        <time>2013-01-30T16:04:17Z</time>
      </trkpt>
      <trkpt lat="43.53038" lon="6.58659">
        <ele>179.1</ele>
        <time>2013-01-30T16:04:30Z</time>
      </trkpt>
      <trkpt lat="43.53033" lon="6.58652">
        <ele>178.9</ele>
        <time>2013-01-30T16:04:35Z</time>
      </trkpt>
      <trkpt lat="43.53026" lon="6.58644">
        <ele>177.8</ele>
        <time>2013-01-30T16:04:42Z</time>
      </trkpt>
      <trkpt lat="43.53018" lon="6.58639">
        <ele>176</ele>
        <time>2013-01-30T16:04:52Z</time>
      </trkpt>
      <trkpt lat="43.53011" lon="6.58634">
        <ele>174.3</ele>
        <time>2013-01-30T16:05:01Z</time>
      </trkpt>
      <trkpt lat="43.53003" lon="6.5863">
        <ele>173.7</ele>
        <time>2013-01-30T16:05:08Z</time>
      </trkpt>
      <trkpt lat="43.52995" lon="6.58623">
        <ele>172.6</ele>
        <time>2013-01-30T16:05:16Z</time>
      </trkpt>
      <trkpt lat="43.52988" lon="6.58616">
        <ele>170.6</ele>
        <time>2013-01-30T16:05:24Z</time>
      </trkpt>
      <trkpt lat="43.52987" lon="6.58614">
        <ele>170.5</ele>
        <time>2013-01-30T16:05:25Z</time>
      </trkpt>
      <trkpt lat="43.52975" lon="6.58601">
        <ele>168.7</ele>
        <time>2013-01-30T16:05:37Z</time>
      </trkpt>
      <trkpt lat="43.5297" lon="6.58594">
        <ele>167.5</ele>
        <time>2013-01-30T16:05:42Z</time>
      </trkpt>
      <trkpt lat="43.52964" lon="6.58588">
        <ele>167.2</ele>
        <time>2013-01-30T16:05:46Z</time>
      </trkpt>
      <trkpt lat="43.5296" lon="6.58578">
        <ele>166</ele>
        <time>2013-01-30T16:05:52Z</time>
      </trkpt>
      <trkpt lat="43.52954" lon="6.58569">
        <ele>164.3</ele>
        <time>2013-01-30T16:06:02Z</time>
      </trkpt>
      <trkpt lat="43.52948" lon="6.58559">
        <ele>163.9</ele>
        <time>2013-01-30T16:06:16Z</time>
      </trkpt>
      <trkpt lat="43.5294" lon="6.58556">
        <ele>162.9</ele>
        <time>2013-01-30T16:06:25Z</time>
      </trkpt>
      <trkpt lat="43.52939" lon="6.58555">
        <ele>162.8</ele>
        <time>2013-01-30T16:06:26Z</time>
      </trkpt>
      <trkpt lat="43.52927" lon="6.58541">
        <ele>161.5</ele>
        <time>2013-01-30T16:06:38Z</time>
      </trkpt>
      <trkpt lat="43.5292" lon="6.58535">
        <ele>159.8</ele>
        <time>2013-01-30T16:06:45Z</time>
      </trkpt>
      <trkpt lat="43.52913" lon="6.58529">
        <ele>158.8</ele>
        <time>2013-01-30T16:06:54Z</time>
      </trkpt>
      <trkpt lat="43.52907" lon="6.58522">
        <ele>158.3</ele>
        <time>2013-01-30T16:07:00Z</time>
      </trkpt>
      <trkpt lat="43.52901" lon="6.58514">
        <ele>157.1</ele>
        <time>2013-01-30T16:07:09Z</time>
      </trkpt>
      <trkpt lat="43.52896" lon="6.58506">
        <ele>155.9</ele>
        <time>2013-01-30T16:07:14Z</time>
      </trkpt>
      <trkpt lat="43.5289" lon="6.58499">
        <ele>155.2</ele>
        <time>2013-01-30T16:07:19Z</time>
      </trkpt>
      <trkpt lat="43.52883" lon="6.58492">
        <ele>154.5</ele>
        <time>2013-01-30T16:07:25Z</time>
      </trkpt>
      <trkpt lat="43.52876" lon="6.58487">
        <ele>153.6</ele>
        <time>2013-01-30T16:07:32Z</time>
      </trkpt>
      <trkpt lat="43.52875" lon="6.58487">
        <ele>153.4</ele>
        <time>2013-01-30T16:07:33Z</time>
      </trkpt>
      <trkpt lat="43.52863" lon="6.58473">
        <ele>152.9</ele>
        <time>2013-01-30T16:07:46Z</time>
      </trkpt>
      <trkpt lat="43.52856" lon="6.58465">
        <ele>151.9</ele>
        <time>2013-01-30T16:07:53Z</time>
      </trkpt>
      <trkpt lat="43.52849" lon="6.58459">
        <ele>151.7</ele>
        <time>2013-01-30T16:07:59Z</time>
      </trkpt>
      <trkpt lat="43.52841" lon="6.58454">
        <ele>151.4</ele>
        <time>2013-01-30T16:08:06Z</time>
      </trkpt>
      <trkpt lat="43.52834" lon="6.58448">
        <ele>150.3</ele>
        <time>2013-01-30T16:08:13Z</time>
      </trkpt>
      <trkpt lat="43.52828" lon="6.58439">
        <ele>150.2</ele>
        <time>2013-01-30T16:08:20Z</time>
      </trkpt>
      <trkpt lat="43.52823" lon="6.5843">
        <ele>149.4</ele>
        <time>2013-01-30T16:08:26Z</time>
      </trkpt>
      <trkpt lat="43.52818" lon="6.5842">
        <ele>148.1</ele>
        <time>2013-01-30T16:08:35Z</time>
      </trkpt>
      <trkpt lat="43.52817" lon="6.58418">
        <ele>148</ele>
        <time>2013-01-30T16:08:36Z</time>
      </trkpt>
      <trkpt lat="43.52809" lon="6.58399">
        <ele>146.4</ele>
        <time>2013-01-30T16:08:47Z</time>
      </trkpt>
      <trkpt lat="43.52807" lon="6.58389">
        <ele>144.5</ele>
        <time>2013-01-30T16:08:54Z</time>
      </trkpt>
      <trkpt lat="43.52804" lon="6.58378">
        <ele>142.9</ele>
        <time>2013-01-30T16:09:03Z</time>
      </trkpt>
      <trkpt lat="43.52801" lon="6.58367">
        <ele>142.4</ele>
        <time>2013-01-30T16:09:09Z</time>
      </trkpt>
      <trkpt lat="43.52797" lon="6.58357">
        <ele>142.1</ele>
        <time>2013-01-30T16:09:16Z</time>
      </trkpt>
      <trkpt lat="43.52789" lon="6.58351">
        <ele>140.8</ele>
        <time>2013-01-30T16:13:40Z</time>
      </trkpt>
      <trkpt lat="43.52789" lon="6.5835">
        <ele>140.8</ele>
        <time>2013-01-30T16:13:41Z</time>
      </trkpt>
      <trkpt lat="43.52775" lon="6.5834">
        <ele>140.1</ele>
        <time>2013-01-30T16:13:58Z</time>
      </trkpt>
      <trkpt lat="43.52766" lon="6.58336">
        <ele>139.7</ele>
        <time>2013-01-30T16:14:05Z</time>
      </trkpt>
      <trkpt lat="43.52758" lon="6.58336">
        <ele>139.1</ele>
        <time>2013-01-30T16:14:14Z</time>
      </trkpt>
      <trkpt lat="43.52751" lon="6.58334">
        <ele>139.4</ele>
        <time>2013-01-30T16:14:20Z</time>
      </trkpt>
      <trkpt lat="43.52742" lon="6.58333">
        <ele>138.8</ele>
        <time>2013-01-30T16:14:27Z</time>
      </trkpt>
      <trkpt lat="43.52733" lon="6.58331">
        <ele>139.3</ele>
        <time>2013-01-30T16:14:35Z</time>
      </trkpt>
      <trkpt lat="43.52725" lon="6.58331">
        <ele>139.6</ele>
        <time>2013-01-30T16:14:42Z</time>
      </trkpt>
      <trkpt lat="43.52724" lon="6.58331">
        <ele>139.6</ele>
        <time>2013-01-30T16:14:43Z</time>
      </trkpt>
      <trkpt lat="43.52709" lon="6.58336">
        <ele>140.1</ele>
        <time>2013-01-30T16:14:55Z</time>
      </trkpt>
      <trkpt lat="43.52701" lon="6.58339">
        <ele>139.9</ele>
        <time>2013-01-30T16:15:01Z</time>
      </trkpt>
      <trkpt lat="43.52692" lon="6.5834">
        <ele>139.9</ele>
        <time>2013-01-30T16:15:08Z</time>
      </trkpt>
      <trkpt lat="43.52685" lon="6.58336">
        <ele>140.1</ele>
        <time>2013-01-30T16:15:13Z</time>
      </trkpt>
      <trkpt lat="43.52677" lon="6.58333">
        <ele>140.2</ele>
        <time>2013-01-30T16:15:20Z</time>
      </trkpt>
      <trkpt lat="43.52669" lon="6.58328">
        <ele>139.5</ele>
        <time>2013-01-30T16:15:27Z</time>
      </trkpt>
      <trkpt lat="43.52661" lon="6.58324">
        <ele>139.2</ele>
        <time>2013-01-30T16:15:34Z</time>
      </trkpt>
      <trkpt lat="43.52653" lon="6.5832">
        <ele>137.9</ele>
        <time>2013-01-30T16:15:42Z</time>
      </trkpt>
      <trkpt lat="43.52645" lon="6.58315">
        <ele>137</ele>
        <time>2013-01-30T16:15:50Z</time>
      </trkpt>
      <trkpt lat="43.52644" lon="6.58314">
        <ele>137</ele>
        <time>2013-01-30T16:15:51Z</time>
      </trkpt>
      <trkpt lat="43.52628" lon="6.58309">
        <ele>134.8</ele>
        <time>2013-01-30T16:16:04Z</time>
      </trkpt>
      <trkpt lat="43.52619" lon="6.5831">
        <ele>133</ele>
        <time>2013-01-30T16:16:12Z</time>
      </trkpt>
      <trkpt lat="43.52611" lon="6.58312">
        <ele>132.2</ele>
        <time>2013-01-30T16:16:21Z</time>
      </trkpt>
      <trkpt lat="43.52602" lon="6.58314">
        <ele>131.4</ele>
        <time>2013-01-30T16:16:29Z</time>
      </trkpt>
      <trkpt lat="43.52594" lon="6.58315">
        <ele>130.5</ele>
        <time>2013-01-30T16:16:36Z</time>
      </trkpt>
      <trkpt lat="43.52587" lon="6.5832">
        <ele>129.9</ele>
        <time>2013-01-30T16:16:43Z</time>
      </trkpt>
      <trkpt lat="43.52579" lon="6.58324">
        <ele>128.8</ele>
        <time>2013-01-30T16:16:51Z</time>
      </trkpt>
      <trkpt lat="43.52578" lon="6.58324">
        <ele>128.6</ele>
        <time>2013-01-30T16:16:52Z</time>
      </trkpt>
      <trkpt lat="43.52563" lon="6.5832">
        <ele>126.9</ele>
        <time>2013-01-30T16:17:07Z</time>
      </trkpt>
      <trkpt lat="43.52555" lon="6.58316">
        <ele>125.9</ele>
        <time>2013-01-30T16:17:14Z</time>
      </trkpt>
      <trkpt lat="43.52546" lon="6.58313">
        <ele>124.6</ele>
        <time>2013-01-30T16:17:22Z</time>
      </trkpt>
      <trkpt lat="43.52539" lon="6.58316">
        <ele>123.1</ele>
        <time>2013-01-30T16:17:29Z</time>
      </trkpt>
      <trkpt lat="43.52531" lon="6.58319">
        <ele>122.1</ele>
        <time>2013-01-30T16:17:36Z</time>
      </trkpt>
      <trkpt lat="43.52524" lon="6.58324">
        <ele>120.8</ele>
        <time>2013-01-30T16:17:43Z</time>
      </trkpt>
      <trkpt lat="43.52517" lon="6.58331">
        <ele>119.8</ele>
        <time>2013-01-30T16:17:53Z</time>
      </trkpt>
      <trkpt lat="43.52516" lon="6.58332">
        <ele>119.5</ele>
        <time>2013-01-30T16:17:54Z</time>
      </trkpt>
      <trkpt lat="43.52502" lon="6.58343">
        <ele>117.9</ele>
        <time>2013-01-30T16:18:09Z</time>
      </trkpt>
      <trkpt lat="43.52494" lon="6.58345">
        <ele>116.9</ele>
        <time>2013-01-30T16:18:18Z</time>
      </trkpt>
      <trkpt lat="43.52486" lon="6.58346">
        <ele>115.7</ele>
        <time>2013-01-30T16:18:25Z</time>
      </trkpt>
      <trkpt lat="43.52477" lon="6.58348">
        <ele>114.8</ele>
        <time>2013-01-30T16:18:32Z</time>
      </trkpt>
      <trkpt lat="43.52469" lon="6.58348">
        <ele>114.4</ele>
        <time>2013-01-30T16:18:38Z</time>
      </trkpt>
      <trkpt lat="43.52461" lon="6.58352">
        <ele>112.7</ele>
        <time>2013-01-30T16:18:45Z</time>
      </trkpt>
      <trkpt lat="43.52453" lon="6.58355">
        <ele>112.3</ele>
        <time>2013-01-30T16:18:52Z</time>
      </trkpt>
      <trkpt lat="43.52446" lon="6.58362">
        <ele>111.3</ele>
        <time>2013-01-30T16:19:00Z</time>
      </trkpt>
      <trkpt lat="43.52445" lon="6.58362">
        <ele>110.9</ele>
        <time>2013-01-30T16:19:01Z</time>
      </trkpt>
      <trkpt lat="43.52432" lon="6.58375">
        <ele>108.4</ele>
        <time>2013-01-30T16:19:17Z</time>
      </trkpt>
      <trkpt lat="43.52424" lon="6.58381">
        <ele>107.6</ele>
        <time>2013-01-30T16:19:25Z</time>
      </trkpt>
      <trkpt lat="43.52416" lon="6.58385">
        <ele>106.2</ele>
        <time>2013-01-30T16:19:33Z</time>
      </trkpt>
      <trkpt lat="43.52408" lon="6.58389">
        <ele>105.3</ele>
        <time>2013-01-30T16:19:41Z</time>
      </trkpt>
      <trkpt lat="43.52399" lon="6.58392">
        <ele>104.5</ele>
        <time>2013-01-30T16:19:48Z</time>
      </trkpt>
      <trkpt lat="43.52392" lon="6.58399">
        <ele>103.9</ele>
        <time>2013-01-30T16:19:55Z</time>
      </trkpt>
      <trkpt lat="43.52384" lon="6.58404">
        <ele>102.6</ele>
        <time>2013-01-30T16:20:03Z</time>
      </trkpt>
      <trkpt lat="43.52383" lon="6.58405">
        <ele>102.7</ele>
        <time>2013-01-30T16:20:04Z</time>
      </trkpt>
      <trkpt lat="43.52368" lon="6.58411">
        <ele>100.8</ele>
        <time>2013-01-30T16:20:20Z</time>
      </trkpt>
      <trkpt lat="43.5236" lon="6.58409">
        <ele>99.8</ele>
        <time>2013-01-30T16:20:28Z</time>
      </trkpt>
      <trkpt lat="43.52353" lon="6.58404">
        <ele>99.6</ele>
        <time>2013-01-30T16:20:33Z</time>
      </trkpt>
      <trkpt lat="43.52346" lon="6.58399">
        <ele>98.6</ele>
        <time>2013-01-30T16:20:39Z</time>
      </trkpt>
      <trkpt lat="43.5234" lon="6.58393">
        <ele>97.8</ele>
        <time>2013-01-30T16:20:44Z</time>
      </trkpt>
      <trkpt lat="43.52332" lon="6.58387">
        <ele>97.6</ele>
        <time>2013-01-30T16:20:50Z</time>
      </trkpt>
      <trkpt lat="43.52324" lon="6.58382">
        <ele>97.6</ele>
        <time>2013-01-30T16:20:57Z</time>
      </trkpt>
      <trkpt lat="43.52317" lon="6.58378">
        <ele>97.9</ele>
        <time>2013-01-30T16:21:03Z</time>
      </trkpt>
      <trkpt lat="43.52309" lon="6.58374">
        <ele>97.4</ele>
        <time>2013-01-30T16:21:10Z</time>
      </trkpt>
      <trkpt lat="43.52308" lon="6.58374">
        <ele>97.3</ele>
        <time>2013-01-30T16:21:11Z</time>
      </trkpt>
      <trkpt lat="43.52293" lon="6.58364">
        <ele>95.8</ele>
        <time>2013-01-30T16:21:25Z</time>
      </trkpt>
      <trkpt lat="43.52285" lon="6.58362">
        <ele>95.2</ele>
        <time>2013-01-30T16:21:32Z</time>
      </trkpt>
      <trkpt lat="43.52276" lon="6.58362">
        <ele>94</ele>
        <time>2013-01-30T16:21:39Z</time>
      </trkpt>
      <trkpt lat="43.52268" lon="6.58362">
        <ele>93.3</ele>
        <time>2013-01-30T16:21:46Z</time>
      </trkpt>
      <trkpt lat="43.5226" lon="6.58362">
        <ele>92.6</ele>
        <time>2013-01-30T16:21:54Z</time>
      </trkpt>
      <trkpt lat="43.52252" lon="6.58364">
        <ele>92</ele>
        <time>2013-01-30T16:22:01Z</time>
      </trkpt>
      <trkpt lat="43.52243" lon="6.58366">
        <ele>90.8</ele>
        <time>2013-01-30T16:22:08Z</time>
      </trkpt>
      <trkpt lat="43.52235" lon="6.58367">
        <ele>90.3</ele>
        <time>2013-01-30T16:22:15Z</time>
      </trkpt>
      <trkpt lat="43.52234" lon="6.58367">
        <ele>90.1</ele>
        <time>2013-01-30T16:22:16Z</time>
      </trkpt>
      <trkpt lat="43.52219" lon="6.58376">
        <ele>88.5</ele>
        <time>2013-01-30T16:22:30Z</time>
      </trkpt>
      <trkpt lat="43.52212" lon="6.58382">
        <ele>87.4</ele>
        <time>2013-01-30T16:22:38Z</time>
      </trkpt>
      <trkpt lat="43.52205" lon="6.58388">
        <ele>86.3</ele>
        <time>2013-01-30T16:22:46Z</time>
      </trkpt>
      <trkpt lat="43.52197" lon="6.58393">
        <ele>86.1</ele>
        <time>2013-01-30T16:22:53Z</time>
      </trkpt>
      <trkpt lat="43.52189" lon="6.58397">
        <ele>85.2</ele>
        <time>2013-01-30T16:22:59Z</time>
      </trkpt>
      <trkpt lat="43.52182" lon="6.584">
        <ele>84.2</ele>
        <time>2013-01-30T16:23:05Z</time>
      </trkpt>
      <trkpt lat="43.52174" lon="6.58405">
        <ele>83.6</ele>
        <time>2013-01-30T16:23:12Z</time>
      </trkpt>
      <trkpt lat="43.52166" lon="6.58409">
        <ele>82.5</ele>
        <time>2013-01-30T16:23:19Z</time>
      </trkpt>
      <trkpt lat="43.52164" lon="6.5841">
        <ele>82.4</ele>
        <time>2013-01-30T16:23:20Z</time>
      </trkpt>
      <trkpt lat="43.5215" lon="6.58418">
        <ele>80.2</ele>
        <time>2013-01-30T16:23:33Z</time>
      </trkpt>
      <trkpt lat="43.52144" lon="6.58424">
        <ele>79.9</ele>
        <time>2013-01-30T16:23:39Z</time>
      </trkpt>
      <trkpt lat="43.52137" lon="6.58431">
        <ele>78.9</ele>
        <time>2013-01-30T16:23:47Z</time>
      </trkpt>
      <trkpt lat="43.52131" lon="6.58439">
        <ele>78.3</ele>
        <time>2013-01-30T16:23:54Z</time>
      </trkpt>
      <trkpt lat="43.52122" lon="6.58439">
        <ele>77.5</ele>
        <time>2013-01-30T16:24:33Z</time>
      </trkpt>
      <trkpt lat="43.52121" lon="6.58438">
        <ele>77.5</ele>
        <time>2013-01-30T16:24:34Z</time>
      </trkpt>
      <trkpt lat="43.52115" lon="6.58421">
        <ele>76.9</ele>
        <time>2013-01-30T16:25:03Z</time>
      </trkpt>
      <trkpt lat="43.52119" lon="6.5841">
        <ele>76.5</ele>
        <time>2013-01-30T16:25:11Z</time>
      </trkpt>
      <trkpt lat="43.52124" lon="6.58402">
        <ele>76.5</ele>
        <time>2013-01-30T16:25:18Z</time>
      </trkpt>
      <trkpt lat="43.52129" lon="6.58394">
        <ele>76.3</ele>
        <time>2013-01-30T16:25:26Z</time>
      </trkpt>
      <trkpt lat="43.52135" lon="6.58385">
        <ele>76.1</ele>
        <time>2013-01-30T16:25:33Z</time>
      </trkpt>
      <trkpt lat="43.52141" lon="6.58376">
        <ele>75.7</ele>
        <time>2013-01-30T16:25:41Z</time>
      </trkpt>
      <trkpt lat="43.52142" lon="6.58375">
        <ele>75.7</ele>
        <time>2013-01-30T16:25:42Z</time>
      </trkpt>
      <trkpt lat="43.52154" lon="6.5836">
        <ele>74.4</ele>
        <time>2013-01-30T16:25:57Z</time>
      </trkpt>
      <trkpt lat="43.5216" lon="6.58352">
        <ele>74.3</ele>
        <time>2013-01-30T16:26:05Z</time>
      </trkpt>
      <trkpt lat="43.52165" lon="6.58341">
        <ele>74</ele>
        <time>2013-01-30T16:26:13Z</time>
      </trkpt>
      <trkpt lat="43.52171" lon="6.58333">
        <ele>73.3</ele>
        <time>2013-01-30T16:26:20Z</time>
      </trkpt>
      <trkpt lat="43.52177" lon="6.58326">
        <ele>72.9</ele>
        <time>2013-01-30T16:26:26Z</time>
      </trkpt>
      <trkpt lat="43.52181" lon="6.58316">
        <ele>72.3</ele>
        <time>2013-01-30T16:26:33Z</time>
      </trkpt>
      <trkpt lat="43.52187" lon="6.58308">
        <ele>71.8</ele>
        <time>2013-01-30T16:26:40Z</time>
      </trkpt>
      <trkpt lat="43.5219" lon="6.58297">
        <ele>71.4</ele>
        <time>2013-01-30T16:26:48Z</time>
      </trkpt>
      <trkpt lat="43.52191" lon="6.58295">
        <ele>71.4</ele>
        <time>2013-01-30T16:26:49Z</time>
      </trkpt>
      <trkpt lat="43.52195" lon="6.58273">
        <ele>70.3</ele>
        <time>2013-01-30T16:27:06Z</time>
      </trkpt>
      <trkpt lat="43.52195" lon="6.58262">
        <ele>69.8</ele>
        <time>2013-01-30T16:27:13Z</time>
      </trkpt>
      <trkpt lat="43.52196" lon="6.5825">
        <ele>69.2</ele>
        <time>2013-01-30T16:27:21Z</time>
      </trkpt>
      <trkpt lat="43.52196" lon="6.58239">
        <ele>68.6</ele>
        <time>2013-01-30T16:27:27Z</time>
      </trkpt>
      <trkpt lat="43.52196" lon="6.58228">
        <ele>68.5</ele>
        <time>2013-01-30T16:27:35Z</time>
      </trkpt>
      <trkpt lat="43.52198" lon="6.58217">
        <ele>67.4</ele>
        <time>2013-01-30T16:27:42Z</time>
      </trkpt>
      <trkpt lat="43.52201" lon="6.58206">
        <ele>66.5</ele>
        <time>2013-01-30T16:27:50Z</time>
      </trkpt>
      <trkpt lat="43.52202" lon="6.58204">
        <ele>66.4</ele>
        <time>2013-01-30T16:27:51Z</time>
      </trkpt>
      <trkpt lat="43.52206" lon="6.58183">
        <ele>64.7</ele>
        <time>2013-01-30T16:28:05Z</time>
      </trkpt>
      <trkpt lat="43.52203" lon="6.58172">
        <ele>64.2</ele>
        <time>2013-01-30T16:28:12Z</time>
      </trkpt>
      <trkpt lat="43.52198" lon="6.58163">
        <ele>63.7</ele>
        <time>2013-01-30T16:28:20Z</time>
      </trkpt>
      <trkpt lat="43.5219" lon="6.58162">
        <ele>62.7</ele>
        <time>2013-01-30T16:28:29Z</time>
      </trkpt>
      <trkpt lat="43.52181" lon="6.58162">
        <ele>61.9</ele>
        <time>2013-01-30T16:28:37Z</time>
      </trkpt>
      <trkpt lat="43.52172" lon="6.58165">
        <ele>61.6</ele>
        <time>2013-01-30T16:28:45Z</time>
      </trkpt>
      <trkpt lat="43.52164" lon="6.58169">
        <ele>60.5</ele>
        <time>2013-01-30T16:28:53Z</time>
      </trkpt>
      <trkpt lat="43.52163" lon="6.58169">
        <ele>60.5</ele>
        <time>2013-01-30T16:28:54Z</time>
      </trkpt>
      <trkpt lat="43.52148" lon="6.58175">
        <ele>58.9</ele>
        <time>2013-01-30T16:29:09Z</time>
      </trkpt>
      <trkpt lat="43.52142" lon="6.58182">
        <ele>58.3</ele>
        <time>2013-01-30T16:29:16Z</time>
      </trkpt>
      <trkpt lat="43.52137" lon="6.58191">
        <ele>57.9</ele>
        <time>2013-01-30T16:29:21Z</time>
      </trkpt>
      <trkpt lat="43.5213" lon="6.582">
        <ele>57.1</ele>
        <time>2013-01-30T16:29:28Z</time>
      </trkpt>
      <trkpt lat="43.52124" lon="6.58207">
        <ele>57.3</ele>
        <time>2013-01-30T16:29:36Z</time>
      </trkpt>
      <trkpt lat="43.52118" lon="6.58216">
        <ele>55.9</ele>
        <time>2013-01-30T16:29:44Z</time>
      </trkpt>
      <trkpt lat="43.52111" lon="6.58224">
        <ele>55.5</ele>
        <time>2013-01-30T16:29:52Z</time>
      </trkpt>
      <trkpt lat="43.52105" lon="6.5823">
        <ele>55.3</ele>
        <time>2013-01-30T16:29:57Z</time>
      </trkpt>
      <trkpt lat="43.52104" lon="6.58231">
        <ele>55.5</ele>
        <time>2013-01-30T16:29:58Z</time>
      </trkpt>
      <trkpt lat="43.52091" lon="6.5824">
        <ele>54.7</ele>
        <time>2013-01-30T16:30:14Z</time>
      </trkpt>
      <trkpt lat="43.52083" lon="6.58245">
        <ele>54.8</ele>
        <time>2013-01-30T16:30:21Z</time>
      </trkpt>
      <trkpt lat="43.52076" lon="6.58253">
        <ele>54.2</ele>
        <time>2013-01-30T16:30:29Z</time>
      </trkpt>
      <trkpt lat="43.52071" lon="6.58262">
        <ele>54.1</ele>
        <time>2013-01-30T16:30:36Z</time>
      </trkpt>
      <trkpt lat="43.52064" lon="6.58269">
        <ele>53.9</ele>
        <time>2013-01-30T16:30:43Z</time>
      </trkpt>
      <trkpt lat="43.52056" lon="6.58274">
        <ele>53.3</ele>
        <time>2013-01-30T16:30:51Z</time>
      </trkpt>
      <trkpt lat="43.52048" lon="6.58277">
        <ele>53.5</ele>
        <time>2013-01-30T16:30:57Z</time>
      </trkpt>
      <trkpt lat="43.5204" lon="6.58279">
        <ele>53.2</ele>
        <time>2013-01-30T16:31:03Z</time>
      </trkpt>
      <trkpt lat="43.52039" lon="6.5828">
        <ele>53.4</ele>
        <time>2013-01-30T16:31:04Z</time>
      </trkpt>
      <trkpt lat="43.52024" lon="6.58287">
        <ele>53</ele>
        <time>2013-01-30T16:31:15Z</time>
      </trkpt>
      <trkpt lat="43.52015" lon="6.5829">
        <ele>52.4</ele>
        <time>2013-01-30T16:31:24Z</time>
      </trkpt>
      <trkpt lat="43.52007" lon="6.58292">
        <ele>52.2</ele>
        <time>2013-01-30T16:31:32Z</time>
      </trkpt>
      <trkpt lat="43.51999" lon="6.58293">
        <ele>51.9</ele>
        <time>2013-01-30T16:31:38Z</time>
      </trkpt>
      <trkpt lat="43.51991" lon="6.58296">
        <ele>51.5</ele>
        <time>2013-01-30T16:31:44Z</time>
      </trkpt>
      <trkpt lat="43.51985" lon="6.58303">
        <ele>50.4</ele>
        <time>2013-01-30T16:31:52Z</time>
      </trkpt>
      <trkpt lat="43.51979" lon="6.5831">
        <ele>51.3</ele>
        <time>2013-01-30T16:31:59Z</time>
      </trkpt>
      <trkpt lat="43.51972" lon="6.58315">
        <ele>50.6</ele>
        <time>2013-01-30T16:32:07Z</time>
      </trkpt>
      <trkpt lat="43.5197" lon="6.58315">
        <ele>50.6</ele>
        <time>2013-01-30T16:32:08Z</time>
      </trkpt>
      <trkpt lat="43.51955" lon="6.58315">
        <ele>49.9</ele>
        <time>2013-01-30T16:32:21Z</time>
      </trkpt>
      <trkpt lat="43.51947" lon="6.58311">
        <ele>49.1</ele>
        <time>2013-01-30T16:32:27Z</time>
      </trkpt>
      <trkpt lat="43.51941" lon="6.58302">
        <ele>47.9</ele>
        <time>2013-01-30T16:32:49Z</time>
      </trkpt>
      <trkpt lat="43.51935" lon="6.58294">
        <ele>47.5</ele>
        <time>2013-01-30T16:32:57Z</time>
      </trkpt>
      <trkpt lat="43.51928" lon="6.5829">
        <ele>47.7</ele>
        <time>2013-01-30T16:33:04Z</time>
      </trkpt>
      <trkpt lat="43.5192" lon="6.58285">
        <ele>47.8</ele>
        <time>2013-01-30T16:33:18Z</time>
      </trkpt>
      <trkpt lat="43.51919" lon="6.58285">
        <ele>47.8</ele>
        <time>2013-01-30T16:33:19Z</time>
      </trkpt>
    </trkseg>
  </trk>
</gpx>